<?xml version="1.0" encoding="UTF-8" standalone="no" ?>
<gpx xmlns="http://www.topografix.com/GPX/1/1" xmlns:xsi="http://www.w3.org/2001/XMLSchema-instance" xsi:schemaLocation="http://www.topografix.com/GPX/1/1 http://www.topografix.com/GPX/1/1/gpx.xsd" version="1.1" creator="VisuGPX - https://www.visugpx.com">
  <metadata>
    <name>2 traces vtt  au départ de Lans en Vercors</name>
    <desc><![CDATA[2 traces vtt  au départ de Lans en Vercors pour idée sortie 2 juin]]></desc>
  </metadata>
  <trk>
    <name><![CDATA[20180518102317-gin7N]]></name>
    <trkseg>
      <trkpt lat="45.12919" lon="5.58503">
        <ele>1012</ele>
        <time>2015-10-31T07:59:39Z</time>
      </trkpt>
      <trkpt lat="45.12917" lon="5.58502">
        <ele>1012</ele>
        <time>2015-10-31T08:00:09Z</time>
      </trkpt>
      <trkpt lat="45.12918" lon="5.58503">
        <ele>1012</ele>
        <time>2015-10-31T08:00:39Z</time>
      </trkpt>
      <trkpt lat="45.1292" lon="5.58501">
        <ele>1012</ele>
        <time>2015-10-31T08:01:09Z</time>
      </trkpt>
      <trkpt lat="45.12919" lon="5.58501">
        <ele>1012</ele>
        <time>2015-10-31T08:01:39Z</time>
      </trkpt>
      <trkpt lat="45.12919" lon="5.58502">
        <ele>1012</ele>
        <time>2015-10-31T08:02:09Z</time>
      </trkpt>
      <trkpt lat="45.12919" lon="5.58502">
        <ele>1012</ele>
        <time>2015-10-31T08:02:39Z</time>
      </trkpt>
      <trkpt lat="45.12924" lon="5.58501">
        <ele>1012</ele>
        <time>2015-10-31T08:03:09Z</time>
      </trkpt>
      <trkpt lat="45.12924" lon="5.58499">
        <ele>1012</ele>
        <time>2015-10-31T08:03:39Z</time>
      </trkpt>
      <trkpt lat="45.12923" lon="5.58499">
        <ele>1012</ele>
        <time>2015-10-31T08:04:09Z</time>
      </trkpt>
      <trkpt lat="45.12922" lon="5.585">
        <ele>1012</ele>
        <time>2015-10-31T08:04:39Z</time>
      </trkpt>
      <trkpt lat="45.12921" lon="5.58499">
        <ele>1012</ele>
        <time>2015-10-31T08:05:09Z</time>
      </trkpt>
      <trkpt lat="45.12922" lon="5.585">
        <ele>1012</ele>
        <time>2015-10-31T08:05:39Z</time>
      </trkpt>
      <trkpt lat="45.12924" lon="5.58485">
        <ele>1011</ele>
        <time>2015-10-31T08:06:09Z</time>
      </trkpt>
      <trkpt lat="45.12965" lon="5.58434">
        <ele>1010</ele>
        <time>2015-10-31T08:06:39Z</time>
      </trkpt>
      <trkpt lat="45.13056" lon="5.58509">
        <ele>1007</ele>
        <time>2015-10-31T08:07:09Z</time>
      </trkpt>
      <trkpt lat="45.13129" lon="5.58408">
        <ele>1006</ele>
        <time>2015-10-31T08:07:39Z</time>
      </trkpt>
      <trkpt lat="45.13162" lon="5.58548">
        <ele>999</ele>
        <time>2015-10-31T08:08:09Z</time>
      </trkpt>
      <trkpt lat="45.13248" lon="5.58638">
        <ele>981</ele>
        <time>2015-10-31T08:08:39Z</time>
      </trkpt>
      <trkpt lat="45.13412" lon="5.58631">
        <ele>974</ele>
        <time>2015-10-31T08:09:09Z</time>
      </trkpt>
      <trkpt lat="45.13571" lon="5.58631">
        <ele>974</ele>
        <time>2015-10-31T08:09:39Z</time>
      </trkpt>
      <trkpt lat="45.13702" lon="5.58625">
        <ele>975</ele>
        <time>2015-10-31T08:10:09Z</time>
      </trkpt>
      <trkpt lat="45.13789" lon="5.58617">
        <ele>976</ele>
        <time>2015-10-31T08:10:39Z</time>
      </trkpt>
      <trkpt lat="45.13897" lon="5.5865">
        <ele>978</ele>
        <time>2015-10-31T08:11:09Z</time>
      </trkpt>
      <trkpt lat="45.14008" lon="5.58718">
        <ele>982</ele>
        <time>2015-10-31T08:11:39Z</time>
      </trkpt>
      <trkpt lat="45.14089" lon="5.58777">
        <ele>985</ele>
        <time>2015-10-31T08:12:09Z</time>
      </trkpt>
      <trkpt lat="45.14152" lon="5.58834">
        <ele>980</ele>
        <time>2015-10-31T08:12:39Z</time>
      </trkpt>
      <trkpt lat="45.14221" lon="5.58869">
        <ele>987</ele>
        <time>2015-10-31T08:13:09Z</time>
      </trkpt>
      <trkpt lat="45.14242" lon="5.58897">
        <ele>987</ele>
        <time>2015-10-31T08:13:39Z</time>
      </trkpt>
      <trkpt lat="45.1424" lon="5.58896">
        <ele>987</ele>
        <time>2015-10-31T08:14:09Z</time>
      </trkpt>
      <trkpt lat="45.14239" lon="5.58897">
        <ele>987</ele>
        <time>2015-10-31T08:14:39Z</time>
      </trkpt>
      <trkpt lat="45.14239" lon="5.58898">
        <ele>987</ele>
        <time>2015-10-31T08:15:09Z</time>
      </trkpt>
      <trkpt lat="45.14239" lon="5.58898">
        <ele>987</ele>
        <time>2015-10-31T08:15:39Z</time>
      </trkpt>
      <trkpt lat="45.14242" lon="5.589">
        <ele>987</ele>
        <time>2015-10-31T08:16:09Z</time>
      </trkpt>
      <trkpt lat="45.14288" lon="5.58946">
        <ele>995</ele>
        <time>2015-10-31T08:16:39Z</time>
      </trkpt>
      <trkpt lat="45.14331" lon="5.58982">
        <ele>999</ele>
        <time>2015-10-31T08:17:09Z</time>
      </trkpt>
      <trkpt lat="45.14378" lon="5.59004">
        <ele>1004</ele>
        <time>2015-10-31T08:17:39Z</time>
      </trkpt>
      <trkpt lat="45.14424" lon="5.59016">
        <ele>1011</ele>
        <time>2015-10-31T08:18:09Z</time>
      </trkpt>
      <trkpt lat="45.14469" lon="5.59035">
        <ele>1014</ele>
        <time>2015-10-31T08:18:39Z</time>
      </trkpt>
      <trkpt lat="45.14509" lon="5.59075">
        <ele>1021</ele>
        <time>2015-10-31T08:19:09Z</time>
      </trkpt>
      <trkpt lat="45.14543" lon="5.59117">
        <ele>1024</ele>
        <time>2015-10-31T08:19:39Z</time>
      </trkpt>
      <trkpt lat="45.14595" lon="5.59125">
        <ele>1033</ele>
        <time>2015-10-31T08:20:09Z</time>
      </trkpt>
      <trkpt lat="45.1464" lon="5.59171">
        <ele>1032</ele>
        <time>2015-10-31T08:20:39Z</time>
      </trkpt>
      <trkpt lat="45.1469" lon="5.59203">
        <ele>1036</ele>
        <time>2015-10-31T08:21:09Z</time>
      </trkpt>
      <trkpt lat="45.14743" lon="5.59246">
        <ele>1037</ele>
        <time>2015-10-31T08:21:39Z</time>
      </trkpt>
      <trkpt lat="45.14797" lon="5.59297">
        <ele>1041</ele>
        <time>2015-10-31T08:22:09Z</time>
      </trkpt>
      <trkpt lat="45.14853" lon="5.5935">
        <ele>1047</ele>
        <time>2015-10-31T08:22:39Z</time>
      </trkpt>
      <trkpt lat="45.149" lon="5.59423">
        <ele>1049</ele>
        <time>2015-10-31T08:23:09Z</time>
      </trkpt>
      <trkpt lat="45.14974" lon="5.59474">
        <ele>1051</ele>
        <time>2015-10-31T08:23:39Z</time>
      </trkpt>
      <trkpt lat="45.15036" lon="5.59459">
        <ele>1057</ele>
        <time>2015-10-31T08:24:09Z</time>
      </trkpt>
      <trkpt lat="45.15087" lon="5.59463">
        <ele>1065</ele>
        <time>2015-10-31T08:24:39Z</time>
      </trkpt>
      <trkpt lat="45.15127" lon="5.59504">
        <ele>1064</ele>
        <time>2015-10-31T08:25:09Z</time>
      </trkpt>
      <trkpt lat="45.15176" lon="5.59529">
        <ele>1073</ele>
        <time>2015-10-31T08:25:39Z</time>
      </trkpt>
      <trkpt lat="45.15226" lon="5.59542">
        <ele>1076</ele>
        <time>2015-10-31T08:26:09Z</time>
      </trkpt>
      <trkpt lat="45.15262" lon="5.59581">
        <ele>1082</ele>
        <time>2015-10-31T08:26:39Z</time>
      </trkpt>
      <trkpt lat="45.15299" lon="5.59632">
        <ele>1083</ele>
        <time>2015-10-31T08:27:09Z</time>
      </trkpt>
      <trkpt lat="45.15346" lon="5.59662">
        <ele>1092</ele>
        <time>2015-10-31T08:27:39Z</time>
      </trkpt>
      <trkpt lat="45.15395" lon="5.59686">
        <ele>1093</ele>
        <time>2015-10-31T08:28:09Z</time>
      </trkpt>
      <trkpt lat="45.15442" lon="5.59681">
        <ele>1104</ele>
        <time>2015-10-31T08:28:39Z</time>
      </trkpt>
      <trkpt lat="45.15481" lon="5.5972">
        <ele>1106</ele>
        <time>2015-10-31T08:29:09Z</time>
      </trkpt>
      <trkpt lat="45.15475" lon="5.59744">
        <ele>1106</ele>
        <time>2015-10-31T08:29:39Z</time>
      </trkpt>
      <trkpt lat="45.15496" lon="5.59791">
        <ele>1104</ele>
        <time>2015-10-31T08:30:09Z</time>
      </trkpt>
      <trkpt lat="45.15499" lon="5.59792">
        <ele>1104</ele>
        <time>2015-10-31T08:30:39Z</time>
      </trkpt>
      <trkpt lat="45.15535" lon="5.59802">
        <ele>1117</ele>
        <time>2015-10-31T08:31:09Z</time>
      </trkpt>
      <trkpt lat="45.1552" lon="5.59742">
        <ele>1117</ele>
        <time>2015-10-31T08:31:39Z</time>
      </trkpt>
      <trkpt lat="45.15538" lon="5.59725">
        <ele>1121</ele>
        <time>2015-10-31T08:32:09Z</time>
      </trkpt>
      <trkpt lat="45.15575" lon="5.59765">
        <ele>1124</ele>
        <time>2015-10-31T08:32:39Z</time>
      </trkpt>
      <trkpt lat="45.1562" lon="5.59757">
        <ele>1135</ele>
        <time>2015-10-31T08:33:09Z</time>
      </trkpt>
      <trkpt lat="45.15661" lon="5.59735">
        <ele>1143</ele>
        <time>2015-10-31T08:33:39Z</time>
      </trkpt>
      <trkpt lat="45.15699" lon="5.59755">
        <ele>1151</ele>
        <time>2015-10-31T08:34:09Z</time>
      </trkpt>
      <trkpt lat="45.15701" lon="5.59785">
        <ele>1151</ele>
        <time>2015-10-31T08:34:39Z</time>
      </trkpt>
      <trkpt lat="45.15694" lon="5.59826">
        <ele>1149</ele>
        <time>2015-10-31T08:35:09Z</time>
      </trkpt>
      <trkpt lat="45.15733" lon="5.59868">
        <ele>1151</ele>
        <time>2015-10-31T08:35:39Z</time>
      </trkpt>
      <trkpt lat="45.1577" lon="5.59894">
        <ele>1161</ele>
        <time>2015-10-31T08:36:09Z</time>
      </trkpt>
      <trkpt lat="45.15806" lon="5.59912">
        <ele>1164</ele>
        <time>2015-10-31T08:36:39Z</time>
      </trkpt>
      <trkpt lat="45.15844" lon="5.59932">
        <ele>1167</ele>
        <time>2015-10-31T08:37:09Z</time>
      </trkpt>
      <trkpt lat="45.15882" lon="5.59948">
        <ele>1170</ele>
        <time>2015-10-31T08:37:39Z</time>
      </trkpt>
      <trkpt lat="45.15923" lon="5.59965">
        <ele>1179</ele>
        <time>2015-10-31T08:38:09Z</time>
      </trkpt>
      <trkpt lat="45.1596" lon="5.59973">
        <ele>1180</ele>
        <time>2015-10-31T08:38:39Z</time>
      </trkpt>
      <trkpt lat="45.15996" lon="5.59989">
        <ele>1181</ele>
        <time>2015-10-31T08:39:09Z</time>
      </trkpt>
      <trkpt lat="45.16039" lon="5.60019">
        <ele>1181</ele>
        <time>2015-10-31T08:39:39Z</time>
      </trkpt>
      <trkpt lat="45.16039" lon="5.60018">
        <ele>1181</ele>
        <time>2015-10-31T08:40:09Z</time>
      </trkpt>
      <trkpt lat="45.16039" lon="5.60017">
        <ele>1181</ele>
        <time>2015-10-31T08:40:39Z</time>
      </trkpt>
      <trkpt lat="45.1604" lon="5.60017">
        <ele>1181</ele>
        <time>2015-10-31T08:41:09Z</time>
      </trkpt>
      <trkpt lat="45.1604" lon="5.60018">
        <ele>1181</ele>
        <time>2015-10-31T08:41:39Z</time>
      </trkpt>
      <trkpt lat="45.16055" lon="5.60004">
        <ele>1183</ele>
        <time>2015-10-31T08:42:09Z</time>
      </trkpt>
      <trkpt lat="45.16086" lon="5.59963">
        <ele>1193</ele>
        <time>2015-10-31T08:42:39Z</time>
      </trkpt>
      <trkpt lat="45.16104" lon="5.59911">
        <ele>1202</ele>
        <time>2015-10-31T08:43:09Z</time>
      </trkpt>
      <trkpt lat="45.16141" lon="5.59902">
        <ele>1205</ele>
        <time>2015-10-31T08:43:39Z</time>
      </trkpt>
      <trkpt lat="45.16174" lon="5.5987">
        <ele>1209</ele>
        <time>2015-10-31T08:44:09Z</time>
      </trkpt>
      <trkpt lat="45.16166" lon="5.59818">
        <ele>1216</ele>
        <time>2015-10-31T08:44:39Z</time>
      </trkpt>
      <trkpt lat="45.16179" lon="5.59773">
        <ele>1223</ele>
        <time>2015-10-31T08:45:09Z</time>
      </trkpt>
      <trkpt lat="45.16214" lon="5.59766">
        <ele>1224</ele>
        <time>2015-10-31T08:45:39Z</time>
      </trkpt>
      <trkpt lat="45.16247" lon="5.59736">
        <ele>1233</ele>
        <time>2015-10-31T08:46:09Z</time>
      </trkpt>
      <trkpt lat="45.16271" lon="5.59708">
        <ele>1243</ele>
        <time>2015-10-31T08:46:39Z</time>
      </trkpt>
      <trkpt lat="45.16302" lon="5.59726">
        <ele>1244</ele>
        <time>2015-10-31T08:47:09Z</time>
      </trkpt>
      <trkpt lat="45.16341" lon="5.59744">
        <ele>1247</ele>
        <time>2015-10-31T08:47:39Z</time>
      </trkpt>
      <trkpt lat="45.16354" lon="5.59749">
        <ele>1250</ele>
        <time>2015-10-31T08:48:09Z</time>
      </trkpt>
      <trkpt lat="45.16355" lon="5.59749">
        <ele>1250</ele>
        <time>2015-10-31T08:48:39Z</time>
      </trkpt>
      <trkpt lat="45.16354" lon="5.59749">
        <ele>1250</ele>
        <time>2015-10-31T08:49:09Z</time>
      </trkpt>
      <trkpt lat="45.16381" lon="5.59737">
        <ele>1254</ele>
        <time>2015-10-31T08:49:39Z</time>
      </trkpt>
      <trkpt lat="45.16377" lon="5.59704">
        <ele>1257</ele>
        <time>2015-10-31T08:50:09Z</time>
      </trkpt>
      <trkpt lat="45.16358" lon="5.59668">
        <ele>1258</ele>
        <time>2015-10-31T08:50:39Z</time>
      </trkpt>
      <trkpt lat="45.16336" lon="5.59633">
        <ele>1270</ele>
        <time>2015-10-31T08:51:09Z</time>
      </trkpt>
      <trkpt lat="45.16307" lon="5.59593">
        <ele>1269</ele>
        <time>2015-10-31T08:51:39Z</time>
      </trkpt>
      <trkpt lat="45.16279" lon="5.5956">
        <ele>1284</ele>
        <time>2015-10-31T08:52:09Z</time>
      </trkpt>
      <trkpt lat="45.16248" lon="5.5954">
        <ele>1277</ele>
        <time>2015-10-31T08:52:39Z</time>
      </trkpt>
      <trkpt lat="45.1622" lon="5.59507">
        <ele>1281</ele>
        <time>2015-10-31T08:53:09Z</time>
      </trkpt>
      <trkpt lat="45.162" lon="5.59469">
        <ele>1297</ele>
        <time>2015-10-31T08:53:39Z</time>
      </trkpt>
      <trkpt lat="45.1618" lon="5.59424">
        <ele>1300</ele>
        <time>2015-10-31T08:54:09Z</time>
      </trkpt>
      <trkpt lat="45.1616" lon="5.59391">
        <ele>1304</ele>
        <time>2015-10-31T08:54:39Z</time>
      </trkpt>
      <trkpt lat="45.16139" lon="5.59344">
        <ele>1311</ele>
        <time>2015-10-31T08:55:09Z</time>
      </trkpt>
      <trkpt lat="45.1611" lon="5.59306">
        <ele>1326</ele>
        <time>2015-10-31T08:55:39Z</time>
      </trkpt>
      <trkpt lat="45.16076" lon="5.59289">
        <ele>1312</ele>
        <time>2015-10-31T08:56:09Z</time>
      </trkpt>
      <trkpt lat="45.16049" lon="5.59271">
        <ele>1312</ele>
        <time>2015-10-31T08:56:39Z</time>
      </trkpt>
      <trkpt lat="45.16025" lon="5.59244">
        <ele>1324</ele>
        <time>2015-10-31T08:57:09Z</time>
      </trkpt>
      <trkpt lat="45.16015" lon="5.59206">
        <ele>1331</ele>
        <time>2015-10-31T08:57:39Z</time>
      </trkpt>
      <trkpt lat="45.16016" lon="5.59206">
        <ele>1331</ele>
        <time>2015-10-31T08:58:09Z</time>
      </trkpt>
      <trkpt lat="45.16018" lon="5.59204">
        <ele>1332</ele>
        <time>2015-10-31T08:58:39Z</time>
      </trkpt>
      <trkpt lat="45.16018" lon="5.59204">
        <ele>1332</ele>
        <time>2015-10-31T08:59:09Z</time>
      </trkpt>
      <trkpt lat="45.16048" lon="5.59227">
        <ele>1333</ele>
        <time>2015-10-31T08:59:39Z</time>
      </trkpt>
      <trkpt lat="45.16083" lon="5.59225">
        <ele>1336</ele>
        <time>2015-10-31T09:00:09Z</time>
      </trkpt>
      <trkpt lat="45.16119" lon="5.5922">
        <ele>1358</ele>
        <time>2015-10-31T09:00:39Z</time>
      </trkpt>
      <trkpt lat="45.16158" lon="5.59222">
        <ele>1362</ele>
        <time>2015-10-31T09:01:09Z</time>
      </trkpt>
      <trkpt lat="45.16191" lon="5.5925">
        <ele>1358</ele>
        <time>2015-10-31T09:01:39Z</time>
      </trkpt>
      <trkpt lat="45.16227" lon="5.59266">
        <ele>1364</ele>
        <time>2015-10-31T09:02:09Z</time>
      </trkpt>
      <trkpt lat="45.16268" lon="5.59282">
        <ele>1376</ele>
        <time>2015-10-31T09:02:39Z</time>
      </trkpt>
      <trkpt lat="45.16312" lon="5.59299">
        <ele>1377</ele>
        <time>2015-10-31T09:03:09Z</time>
      </trkpt>
      <trkpt lat="45.16362" lon="5.59318">
        <ele>1385</ele>
        <time>2015-10-31T09:03:39Z</time>
      </trkpt>
      <trkpt lat="45.16408" lon="5.59306">
        <ele>1388</ele>
        <time>2015-10-31T09:04:09Z</time>
      </trkpt>
      <trkpt lat="45.16416" lon="5.59295">
        <ele>1391</ele>
        <time>2015-10-31T09:04:39Z</time>
      </trkpt>
      <trkpt lat="45.16416" lon="5.59292">
        <ele>1391</ele>
        <time>2015-10-31T09:05:09Z</time>
      </trkpt>
      <trkpt lat="45.16416" lon="5.59294">
        <ele>1391</ele>
        <time>2015-10-31T09:05:39Z</time>
      </trkpt>
      <trkpt lat="45.16417" lon="5.59296">
        <ele>1390</ele>
        <time>2015-10-31T09:06:09Z</time>
      </trkpt>
      <trkpt lat="45.16417" lon="5.59298">
        <ele>1388</ele>
        <time>2015-10-31T09:06:39Z</time>
      </trkpt>
      <trkpt lat="45.16433" lon="5.59281">
        <ele>1391</ele>
        <time>2015-10-31T09:07:09Z</time>
      </trkpt>
      <trkpt lat="45.16464" lon="5.59243">
        <ele>1403</ele>
        <time>2015-10-31T09:07:39Z</time>
      </trkpt>
      <trkpt lat="45.16476" lon="5.59186">
        <ele>1407</ele>
        <time>2015-10-31T09:08:09Z</time>
      </trkpt>
      <trkpt lat="45.1649" lon="5.59126">
        <ele>1417</ele>
        <time>2015-10-31T09:08:39Z</time>
      </trkpt>
      <trkpt lat="45.16499" lon="5.59089">
        <ele>1412</ele>
        <time>2015-10-31T09:09:09Z</time>
      </trkpt>
      <trkpt lat="45.16479" lon="5.59049">
        <ele>1421</ele>
        <time>2015-10-31T09:09:39Z</time>
      </trkpt>
      <trkpt lat="45.16454" lon="5.59012">
        <ele>1425</ele>
        <time>2015-10-31T09:10:09Z</time>
      </trkpt>
      <trkpt lat="45.16425" lon="5.58968">
        <ele>1428</ele>
        <time>2015-10-31T09:10:39Z</time>
      </trkpt>
      <trkpt lat="45.16404" lon="5.58929">
        <ele>1437</ele>
        <time>2015-10-31T09:11:09Z</time>
      </trkpt>
      <trkpt lat="45.16373" lon="5.5888">
        <ele>1444</ele>
        <time>2015-10-31T09:11:39Z</time>
      </trkpt>
      <trkpt lat="45.16345" lon="5.5881">
        <ele>1451</ele>
        <time>2015-10-31T09:12:09Z</time>
      </trkpt>
      <trkpt lat="45.16299" lon="5.58764">
        <ele>1447</ele>
        <time>2015-10-31T09:12:39Z</time>
      </trkpt>
      <trkpt lat="45.16299" lon="5.58764">
        <ele>1447</ele>
        <time>2015-10-31T09:13:09Z</time>
      </trkpt>
      <trkpt lat="45.16298" lon="5.58764">
        <ele>1447</ele>
        <time>2015-10-31T09:13:39Z</time>
      </trkpt>
      <trkpt lat="45.16298" lon="5.58764">
        <ele>1447</ele>
        <time>2015-10-31T09:14:09Z</time>
      </trkpt>
      <trkpt lat="45.16298" lon="5.58764">
        <ele>1447</ele>
        <time>2015-10-31T09:14:39Z</time>
      </trkpt>
      <trkpt lat="45.16299" lon="5.58764">
        <ele>1447</ele>
        <time>2015-10-31T09:15:09Z</time>
      </trkpt>
      <trkpt lat="45.16313" lon="5.58728">
        <ele>1456</ele>
        <time>2015-10-31T09:15:39Z</time>
      </trkpt>
      <trkpt lat="45.16368" lon="5.58708">
        <ele>1473</ele>
        <time>2015-10-31T09:16:09Z</time>
      </trkpt>
      <trkpt lat="45.16414" lon="5.58697">
        <ele>1478</ele>
        <time>2015-10-31T09:16:39Z</time>
      </trkpt>
      <trkpt lat="45.16416" lon="5.58697">
        <ele>1478</ele>
        <time>2015-10-31T09:17:09Z</time>
      </trkpt>
      <trkpt lat="45.16416" lon="5.58698">
        <ele>1478</ele>
        <time>2015-10-31T09:17:39Z</time>
      </trkpt>
      <trkpt lat="45.16416" lon="5.58698">
        <ele>1478</ele>
        <time>2015-10-31T09:18:09Z</time>
      </trkpt>
      <trkpt lat="45.16421" lon="5.58694">
        <ele>1488</ele>
        <time>2015-10-31T09:18:39Z</time>
      </trkpt>
      <trkpt lat="45.16422" lon="5.58691">
        <ele>1488</ele>
        <time>2015-10-31T09:19:09Z</time>
      </trkpt>
      <trkpt lat="45.16423" lon="5.5869">
        <ele>1488</ele>
        <time>2015-10-31T09:19:39Z</time>
      </trkpt>
      <trkpt lat="45.16446" lon="5.58693">
        <ele>1489</ele>
        <time>2015-10-31T09:20:09Z</time>
      </trkpt>
      <trkpt lat="45.16508" lon="5.5867">
        <ele>1505</ele>
        <time>2015-10-31T09:20:39Z</time>
      </trkpt>
      <trkpt lat="45.16591" lon="5.58651">
        <ele>1524</ele>
        <time>2015-10-31T09:21:09Z</time>
      </trkpt>
      <trkpt lat="45.16681" lon="5.58647">
        <ele>1539</ele>
        <time>2015-10-31T09:21:39Z</time>
      </trkpt>
      <trkpt lat="45.16745" lon="5.58643">
        <ele>1543</ele>
        <time>2015-10-31T09:22:09Z</time>
      </trkpt>
      <trkpt lat="45.1678" lon="5.58657">
        <ele>1549</ele>
        <time>2015-10-31T09:22:39Z</time>
      </trkpt>
      <trkpt lat="45.16783" lon="5.58653">
        <ele>1550</ele>
        <time>2015-10-31T09:23:09Z</time>
      </trkpt>
      <trkpt lat="45.16785" lon="5.5865">
        <ele>1551</ele>
        <time>2015-10-31T09:23:39Z</time>
      </trkpt>
      <trkpt lat="45.16783" lon="5.58651">
        <ele>1550</ele>
        <time>2015-10-31T09:24:09Z</time>
      </trkpt>
      <trkpt lat="45.16782" lon="5.58651">
        <ele>1550</ele>
        <time>2015-10-31T09:24:39Z</time>
      </trkpt>
      <trkpt lat="45.16785" lon="5.5865">
        <ele>1551</ele>
        <time>2015-10-31T09:25:09Z</time>
      </trkpt>
      <trkpt lat="45.16829" lon="5.58652">
        <ele>1552</ele>
        <time>2015-10-31T09:25:39Z</time>
      </trkpt>
      <trkpt lat="45.16828" lon="5.58652">
        <ele>1552</ele>
        <time>2015-10-31T09:26:09Z</time>
      </trkpt>
      <trkpt lat="45.16826" lon="5.58653">
        <ele>1552</ele>
        <time>2015-10-31T09:26:39Z</time>
      </trkpt>
      <trkpt lat="45.16828" lon="5.58653">
        <ele>1552</ele>
        <time>2015-10-31T09:27:09Z</time>
      </trkpt>
      <trkpt lat="45.16828" lon="5.58653">
        <ele>1552</ele>
        <time>2015-10-31T09:27:39Z</time>
      </trkpt>
      <trkpt lat="45.16826" lon="5.58652">
        <ele>1552</ele>
        <time>2015-10-31T09:28:09Z</time>
      </trkpt>
      <trkpt lat="45.16827" lon="5.58653">
        <ele>1552</ele>
        <time>2015-10-31T09:28:39Z</time>
      </trkpt>
      <trkpt lat="45.16828" lon="5.58653">
        <ele>1552</ele>
        <time>2015-10-31T09:29:09Z</time>
      </trkpt>
      <trkpt lat="45.16828" lon="5.58652">
        <ele>1552</ele>
        <time>2015-10-31T09:29:39Z</time>
      </trkpt>
      <trkpt lat="45.16832" lon="5.58653">
        <ele>1552</ele>
        <time>2015-10-31T09:30:09Z</time>
      </trkpt>
      <trkpt lat="45.16833" lon="5.58653">
        <ele>1552</ele>
        <time>2015-10-31T09:30:39Z</time>
      </trkpt>
      <trkpt lat="45.16833" lon="5.58651">
        <ele>1553</ele>
        <time>2015-10-31T09:31:09Z</time>
      </trkpt>
      <trkpt lat="45.16833" lon="5.58651">
        <ele>1553</ele>
        <time>2015-10-31T09:31:39Z</time>
      </trkpt>
      <trkpt lat="45.16865" lon="5.58663">
        <ele>1560</ele>
        <time>2015-10-31T09:32:09Z</time>
      </trkpt>
      <trkpt lat="45.1691" lon="5.58667">
        <ele>1561</ele>
        <time>2015-10-31T09:32:39Z</time>
      </trkpt>
      <trkpt lat="45.1695" lon="5.58669">
        <ele>1566</ele>
        <time>2015-10-31T09:33:09Z</time>
      </trkpt>
      <trkpt lat="45.16975" lon="5.58671">
        <ele>1568</ele>
        <time>2015-10-31T09:33:39Z</time>
      </trkpt>
      <trkpt lat="45.17018" lon="5.58691">
        <ele>1572</ele>
        <time>2015-10-31T09:34:09Z</time>
      </trkpt>
      <trkpt lat="45.1703" lon="5.58689">
        <ele>1573</ele>
        <time>2015-10-31T09:34:39Z</time>
      </trkpt>
      <trkpt lat="45.17078" lon="5.58675">
        <ele>1575</ele>
        <time>2015-10-31T09:35:09Z</time>
      </trkpt>
      <trkpt lat="45.17134" lon="5.58671">
        <ele>1581</ele>
        <time>2015-10-31T09:35:39Z</time>
      </trkpt>
      <trkpt lat="45.17179" lon="5.58661">
        <ele>1587</ele>
        <time>2015-10-31T09:36:09Z</time>
      </trkpt>
      <trkpt lat="45.17224" lon="5.58708">
        <ele>1588</ele>
        <time>2015-10-31T09:36:39Z</time>
      </trkpt>
      <trkpt lat="45.1723" lon="5.58716">
        <ele>1588</ele>
        <time>2015-10-31T09:37:09Z</time>
      </trkpt>
      <trkpt lat="45.1723" lon="5.5872">
        <ele>1588</ele>
        <time>2015-10-31T09:37:39Z</time>
      </trkpt>
      <trkpt lat="45.17295" lon="5.58754">
        <ele>1591</ele>
        <time>2015-10-31T09:38:09Z</time>
      </trkpt>
      <trkpt lat="45.17353" lon="5.58775">
        <ele>1594</ele>
        <time>2015-10-31T09:38:39Z</time>
      </trkpt>
      <trkpt lat="45.17415" lon="5.5881">
        <ele>1594</ele>
        <time>2015-10-31T09:39:09Z</time>
      </trkpt>
      <trkpt lat="45.17468" lon="5.58842">
        <ele>1591</ele>
        <time>2015-10-31T09:39:39Z</time>
      </trkpt>
      <trkpt lat="45.17541" lon="5.58878">
        <ele>1590</ele>
        <time>2015-10-31T09:40:09Z</time>
      </trkpt>
      <trkpt lat="45.17588" lon="5.58903">
        <ele>1591</ele>
        <time>2015-10-31T09:40:39Z</time>
      </trkpt>
      <trkpt lat="45.17526" lon="5.58805">
        <ele>1600</ele>
        <time>2015-10-31T09:41:09Z</time>
      </trkpt>
      <trkpt lat="45.17425" lon="5.58705">
        <ele>1612</ele>
        <time>2015-10-31T09:41:39Z</time>
      </trkpt>
      <trkpt lat="45.1732" lon="5.58617">
        <ele>1605</ele>
        <time>2015-10-31T09:42:09Z</time>
      </trkpt>
      <trkpt lat="45.17249" lon="5.58498">
        <ele>1621</ele>
        <time>2015-10-31T09:42:39Z</time>
      </trkpt>
      <trkpt lat="45.17179" lon="5.58444">
        <ele>1622</ele>
        <time>2015-10-31T09:43:09Z</time>
      </trkpt>
      <trkpt lat="45.1717" lon="5.58441">
        <ele>1622</ele>
        <time>2015-10-31T09:43:39Z</time>
      </trkpt>
      <trkpt lat="45.17153" lon="5.58427">
        <ele>1617</ele>
        <time>2015-10-31T09:44:09Z</time>
      </trkpt>
      <trkpt lat="45.17141" lon="5.58412">
        <ele>1625</ele>
        <time>2015-10-31T09:44:39Z</time>
      </trkpt>
      <trkpt lat="45.17125" lon="5.58395">
        <ele>1625</ele>
        <time>2015-10-31T09:45:09Z</time>
      </trkpt>
      <trkpt lat="45.17109" lon="5.5838">
        <ele>1625</ele>
        <time>2015-10-31T09:45:39Z</time>
      </trkpt>
      <trkpt lat="45.17097" lon="5.58366">
        <ele>1627</ele>
        <time>2015-10-31T09:46:09Z</time>
      </trkpt>
      <trkpt lat="45.17096" lon="5.58362">
        <ele>1628</ele>
        <time>2015-10-31T09:46:39Z</time>
      </trkpt>
      <trkpt lat="45.17096" lon="5.58362">
        <ele>1628</ele>
        <time>2015-10-31T09:47:09Z</time>
      </trkpt>
      <trkpt lat="45.17097" lon="5.58362">
        <ele>1628</ele>
        <time>2015-10-31T09:47:39Z</time>
      </trkpt>
      <trkpt lat="45.17097" lon="5.58363">
        <ele>1627</ele>
        <time>2015-10-31T09:48:09Z</time>
      </trkpt>
      <trkpt lat="45.17097" lon="5.58363">
        <ele>1627</ele>
        <time>2015-10-31T09:48:39Z</time>
      </trkpt>
      <trkpt lat="45.17097" lon="5.58364">
        <ele>1627</ele>
        <time>2015-10-31T09:49:09Z</time>
      </trkpt>
      <trkpt lat="45.17098" lon="5.58364">
        <ele>1627</ele>
        <time>2015-10-31T09:49:39Z</time>
      </trkpt>
      <trkpt lat="45.17098" lon="5.58365">
        <ele>1627</ele>
        <time>2015-10-31T09:50:09Z</time>
      </trkpt>
      <trkpt lat="45.17097" lon="5.58364">
        <ele>1627</ele>
        <time>2015-10-31T09:50:39Z</time>
      </trkpt>
      <trkpt lat="45.17122" lon="5.58376">
        <ele>1626</ele>
        <time>2015-10-31T09:51:09Z</time>
      </trkpt>
      <trkpt lat="45.17173" lon="5.58396">
        <ele>1630</ele>
        <time>2015-10-31T09:51:39Z</time>
      </trkpt>
      <trkpt lat="45.17229" lon="5.58385">
        <ele>1636</ele>
        <time>2015-10-31T09:52:09Z</time>
      </trkpt>
      <trkpt lat="45.17282" lon="5.584">
        <ele>1650</ele>
        <time>2015-10-31T09:52:39Z</time>
      </trkpt>
      <trkpt lat="45.17279" lon="5.58404">
        <ele>1650</ele>
        <time>2015-10-31T09:53:09Z</time>
      </trkpt>
      <trkpt lat="45.17281" lon="5.58402">
        <ele>1650</ele>
        <time>2015-10-31T09:53:39Z</time>
      </trkpt>
      <trkpt lat="45.17281" lon="5.58402">
        <ele>1650</ele>
        <time>2015-10-31T09:54:09Z</time>
      </trkpt>
      <trkpt lat="45.17282" lon="5.58402">
        <ele>1651</ele>
        <time>2015-10-31T09:54:39Z</time>
      </trkpt>
      <trkpt lat="45.17282" lon="5.58403">
        <ele>1651</ele>
        <time>2015-10-31T09:55:09Z</time>
      </trkpt>
      <trkpt lat="45.17282" lon="5.58402">
        <ele>1650</ele>
        <time>2015-10-31T09:55:39Z</time>
      </trkpt>
      <trkpt lat="45.17282" lon="5.58403">
        <ele>1651</ele>
        <time>2015-10-31T09:56:09Z</time>
      </trkpt>
      <trkpt lat="45.17283" lon="5.58402">
        <ele>1651</ele>
        <time>2015-10-31T09:56:39Z</time>
      </trkpt>
      <trkpt lat="45.17282" lon="5.58402">
        <ele>1650</ele>
        <time>2015-10-31T09:57:09Z</time>
      </trkpt>
      <trkpt lat="45.17282" lon="5.58401">
        <ele>1651</ele>
        <time>2015-10-31T09:57:39Z</time>
      </trkpt>
      <trkpt lat="45.17282" lon="5.58402">
        <ele>1651</ele>
        <time>2015-10-31T09:58:09Z</time>
      </trkpt>
      <trkpt lat="45.17282" lon="5.58401">
        <ele>1650</ele>
        <time>2015-10-31T09:58:39Z</time>
      </trkpt>
      <trkpt lat="45.17282" lon="5.58399">
        <ele>1651</ele>
        <time>2015-10-31T09:59:09Z</time>
      </trkpt>
      <trkpt lat="45.17282" lon="5.58398">
        <ele>1651</ele>
        <time>2015-10-31T09:59:39Z</time>
      </trkpt>
      <trkpt lat="45.17282" lon="5.58399">
        <ele>1651</ele>
        <time>2015-10-31T10:00:09Z</time>
      </trkpt>
      <trkpt lat="45.17282" lon="5.58398">
        <ele>1651</ele>
        <time>2015-10-31T10:00:39Z</time>
      </trkpt>
      <trkpt lat="45.17282" lon="5.584">
        <ele>1651</ele>
        <time>2015-10-31T10:01:09Z</time>
      </trkpt>
      <trkpt lat="45.17282" lon="5.584">
        <ele>1651</ele>
        <time>2015-10-31T10:01:39Z</time>
      </trkpt>
      <trkpt lat="45.17282" lon="5.58401">
        <ele>1651</ele>
        <time>2015-10-31T10:02:09Z</time>
      </trkpt>
      <trkpt lat="45.17283" lon="5.58401">
        <ele>1651</ele>
        <time>2015-10-31T10:02:39Z</time>
      </trkpt>
      <trkpt lat="45.17284" lon="5.58401">
        <ele>1651</ele>
        <time>2015-10-31T10:03:09Z</time>
      </trkpt>
      <trkpt lat="45.17284" lon="5.58402">
        <ele>1651</ele>
        <time>2015-10-31T10:03:39Z</time>
      </trkpt>
      <trkpt lat="45.17284" lon="5.58402">
        <ele>1651</ele>
        <time>2015-10-31T10:04:09Z</time>
      </trkpt>
      <trkpt lat="45.17284" lon="5.58403">
        <ele>1651</ele>
        <time>2015-10-31T10:04:39Z</time>
      </trkpt>
      <trkpt lat="45.17287" lon="5.58398">
        <ele>1651</ele>
        <time>2015-10-31T10:05:09Z</time>
      </trkpt>
      <trkpt lat="45.17298" lon="5.58388">
        <ele>1653</ele>
        <time>2015-10-31T10:05:39Z</time>
      </trkpt>
      <trkpt lat="45.17351" lon="5.58328">
        <ele>1657</ele>
        <time>2015-10-31T10:06:09Z</time>
      </trkpt>
      <trkpt lat="45.17428" lon="5.58186">
        <ele>1635</ele>
        <time>2015-10-31T10:06:39Z</time>
      </trkpt>
      <trkpt lat="45.17532" lon="5.58069">
        <ele>1622</ele>
        <time>2015-10-31T10:07:09Z</time>
      </trkpt>
      <trkpt lat="45.1753" lon="5.57995">
        <ele>1607</ele>
        <time>2015-10-31T10:07:39Z</time>
      </trkpt>
      <trkpt lat="45.17532" lon="5.57982">
        <ele>1606</ele>
        <time>2015-10-31T10:08:09Z</time>
      </trkpt>
      <trkpt lat="45.1753" lon="5.57979">
        <ele>1606</ele>
        <time>2015-10-31T10:08:39Z</time>
      </trkpt>
      <trkpt lat="45.17523" lon="5.57968">
        <ele>1604</ele>
        <time>2015-10-31T10:09:09Z</time>
      </trkpt>
      <trkpt lat="45.17521" lon="5.57965">
        <ele>1604</ele>
        <time>2015-10-31T10:09:39Z</time>
      </trkpt>
      <trkpt lat="45.1752" lon="5.57963">
        <ele>1604</ele>
        <time>2015-10-31T10:10:09Z</time>
      </trkpt>
      <trkpt lat="45.17519" lon="5.5796">
        <ele>1603</ele>
        <time>2015-10-31T10:10:39Z</time>
      </trkpt>
      <trkpt lat="45.17519" lon="5.57957">
        <ele>1603</ele>
        <time>2015-10-31T10:11:09Z</time>
      </trkpt>
      <trkpt lat="45.1753" lon="5.57897">
        <ele>1590</ele>
        <time>2015-10-31T10:11:39Z</time>
      </trkpt>
      <trkpt lat="45.17539" lon="5.578">
        <ele>1573</ele>
        <time>2015-10-31T10:12:09Z</time>
      </trkpt>
      <trkpt lat="45.17528" lon="5.57726">
        <ele>1553</ele>
        <time>2015-10-31T10:12:39Z</time>
      </trkpt>
      <trkpt lat="45.17452" lon="5.57616">
        <ele>1518</ele>
        <time>2015-10-31T10:13:09Z</time>
      </trkpt>
      <trkpt lat="45.17435" lon="5.57739">
        <ele>1522</ele>
        <time>2015-10-31T10:13:39Z</time>
      </trkpt>
      <trkpt lat="45.17356" lon="5.57959">
        <ele>1525</ele>
        <time>2015-10-31T10:14:09Z</time>
      </trkpt>
      <trkpt lat="45.17264" lon="5.58034">
        <ele>1521</ele>
        <time>2015-10-31T10:14:39Z</time>
      </trkpt>
      <trkpt lat="45.17204" lon="5.58028">
        <ele>1518</ele>
        <time>2015-10-31T10:15:09Z</time>
      </trkpt>
      <trkpt lat="45.17111" lon="5.57966">
        <ele>1509</ele>
        <time>2015-10-31T10:15:39Z</time>
      </trkpt>
      <trkpt lat="45.16961" lon="5.5791">
        <ele>1502</ele>
        <time>2015-10-31T10:16:09Z</time>
      </trkpt>
      <trkpt lat="45.16884" lon="5.5791">
        <ele>1503</ele>
        <time>2015-10-31T10:16:39Z</time>
      </trkpt>
      <trkpt lat="45.16811" lon="5.57851">
        <ele>1494</ele>
        <time>2015-10-31T10:17:09Z</time>
      </trkpt>
      <trkpt lat="45.16683" lon="5.57772">
        <ele>1477</ele>
        <time>2015-10-31T10:17:39Z</time>
      </trkpt>
      <trkpt lat="45.16568" lon="5.57735">
        <ele>1466</ele>
        <time>2015-10-31T10:18:09Z</time>
      </trkpt>
      <trkpt lat="45.16556" lon="5.57681">
        <ele>1459</ele>
        <time>2015-10-31T10:18:39Z</time>
      </trkpt>
      <trkpt lat="45.16552" lon="5.5768">
        <ele>1459</ele>
        <time>2015-10-31T10:19:09Z</time>
      </trkpt>
      <trkpt lat="45.16547" lon="5.57646">
        <ele>1446</ele>
        <time>2015-10-31T10:19:39Z</time>
      </trkpt>
      <trkpt lat="45.16576" lon="5.57621">
        <ele>1440</ele>
        <time>2015-10-31T10:20:09Z</time>
      </trkpt>
      <trkpt lat="45.16584" lon="5.57589">
        <ele>1424</ele>
        <time>2015-10-31T10:20:39Z</time>
      </trkpt>
      <trkpt lat="45.16605" lon="5.57563">
        <ele>1413</ele>
        <time>2015-10-31T10:21:09Z</time>
      </trkpt>
      <trkpt lat="45.16603" lon="5.57564">
        <ele>1414</ele>
        <time>2015-10-31T10:21:39Z</time>
      </trkpt>
      <trkpt lat="45.16607" lon="5.57563">
        <ele>1413</ele>
        <time>2015-10-31T10:22:09Z</time>
      </trkpt>
      <trkpt lat="45.16606" lon="5.57561">
        <ele>1413</ele>
        <time>2015-10-31T10:22:39Z</time>
      </trkpt>
      <trkpt lat="45.16603" lon="5.57555">
        <ele>1412</ele>
        <time>2015-10-31T10:23:09Z</time>
      </trkpt>
      <trkpt lat="45.16596" lon="5.57441">
        <ele>1388</ele>
        <time>2015-10-31T10:23:39Z</time>
      </trkpt>
      <trkpt lat="45.16592" lon="5.57289">
        <ele>1368</ele>
        <time>2015-10-31T10:24:09Z</time>
      </trkpt>
      <trkpt lat="45.1661" lon="5.57225">
        <ele>1360</ele>
        <time>2015-10-31T10:24:39Z</time>
      </trkpt>
      <trkpt lat="45.16646" lon="5.57284">
        <ele>1356</ele>
        <time>2015-10-31T10:25:09Z</time>
      </trkpt>
      <trkpt lat="45.16645" lon="5.57286">
        <ele>1356</ele>
        <time>2015-10-31T10:25:39Z</time>
      </trkpt>
      <trkpt lat="45.16656" lon="5.57204">
        <ele>1347</ele>
        <time>2015-10-31T10:26:09Z</time>
      </trkpt>
      <trkpt lat="45.16684" lon="5.57181">
        <ele>1321</ele>
        <time>2015-10-31T10:26:39Z</time>
      </trkpt>
      <trkpt lat="45.16687" lon="5.5713">
        <ele>1308</ele>
        <time>2015-10-31T10:27:09Z</time>
      </trkpt>
      <trkpt lat="45.16681" lon="5.57036">
        <ele>1301</ele>
        <time>2015-10-31T10:27:39Z</time>
      </trkpt>
      <trkpt lat="45.16765" lon="5.5687">
        <ele>1260</ele>
        <time>2015-10-31T10:28:09Z</time>
      </trkpt>
      <trkpt lat="45.16769" lon="5.56973">
        <ele>1253</ele>
        <time>2015-10-31T10:28:39Z</time>
      </trkpt>
      <trkpt lat="45.16836" lon="5.56794">
        <ele>1224</ele>
        <time>2015-10-31T10:29:09Z</time>
      </trkpt>
      <trkpt lat="45.16855" lon="5.56737">
        <ele>1230</ele>
        <time>2015-10-31T10:29:39Z</time>
      </trkpt>
      <trkpt lat="45.16862" lon="5.56732">
        <ele>1228</ele>
        <time>2015-10-31T10:30:09Z</time>
      </trkpt>
      <trkpt lat="45.16858" lon="5.56869">
        <ele>1216</ele>
        <time>2015-10-31T10:30:39Z</time>
      </trkpt>
      <trkpt lat="45.16888" lon="5.56923">
        <ele>1210</ele>
        <time>2015-10-31T10:31:09Z</time>
      </trkpt>
      <trkpt lat="45.16896" lon="5.56903">
        <ele>1207</ele>
        <time>2015-10-31T10:31:39Z</time>
      </trkpt>
      <trkpt lat="45.16925" lon="5.56717">
        <ele>1200</ele>
        <time>2015-10-31T10:32:09Z</time>
      </trkpt>
      <trkpt lat="45.17011" lon="5.56607">
        <ele>1179</ele>
        <time>2015-10-31T10:32:39Z</time>
      </trkpt>
      <trkpt lat="45.17035" lon="5.56552">
        <ele>1168</ele>
        <time>2015-10-31T10:33:09Z</time>
      </trkpt>
      <trkpt lat="45.1706" lon="5.56496">
        <ele>1155</ele>
        <time>2015-10-31T10:33:39Z</time>
      </trkpt>
      <trkpt lat="45.1706" lon="5.56494">
        <ele>1155</ele>
        <time>2015-10-31T10:34:09Z</time>
      </trkpt>
      <trkpt lat="45.17058" lon="5.56495">
        <ele>1155</ele>
        <time>2015-10-31T10:34:39Z</time>
      </trkpt>
      <trkpt lat="45.17059" lon="5.56493">
        <ele>1155</ele>
        <time>2015-10-31T10:35:09Z</time>
      </trkpt>
      <trkpt lat="45.1706" lon="5.56494">
        <ele>1155</ele>
        <time>2015-10-31T10:35:39Z</time>
      </trkpt>
      <trkpt lat="45.1706" lon="5.56494">
        <ele>1155</ele>
        <time>2015-10-31T10:36:09Z</time>
      </trkpt>
      <trkpt lat="45.17068" lon="5.56489">
        <ele>1154</ele>
        <time>2015-10-31T10:36:39Z</time>
      </trkpt>
      <trkpt lat="45.17068" lon="5.56488">
        <ele>1154</ele>
        <time>2015-10-31T10:37:09Z</time>
      </trkpt>
      <trkpt lat="45.17096" lon="5.56451">
        <ele>1146</ele>
        <time>2015-10-31T10:37:39Z</time>
      </trkpt>
      <trkpt lat="45.17042" lon="5.56459">
        <ele>1153</ele>
        <time>2015-10-31T10:38:09Z</time>
      </trkpt>
      <trkpt lat="45.17046" lon="5.5635">
        <ele>1142</ele>
        <time>2015-10-31T10:38:39Z</time>
      </trkpt>
      <trkpt lat="45.17062" lon="5.56149">
        <ele>1121</ele>
        <time>2015-10-31T10:39:09Z</time>
      </trkpt>
      <trkpt lat="45.17072" lon="5.56139">
        <ele>1121</ele>
        <time>2015-10-31T10:39:39Z</time>
      </trkpt>
      <trkpt lat="45.17071" lon="5.56138">
        <ele>1121</ele>
        <time>2015-10-31T10:40:09Z</time>
      </trkpt>
      <trkpt lat="45.17072" lon="5.56137">
        <ele>1121</ele>
        <time>2015-10-31T10:40:39Z</time>
      </trkpt>
      <trkpt lat="45.17072" lon="5.56137">
        <ele>1121</ele>
        <time>2015-10-31T10:41:09Z</time>
      </trkpt>
      <trkpt lat="45.17073" lon="5.56137">
        <ele>1121</ele>
        <time>2015-10-31T10:41:39Z</time>
      </trkpt>
      <trkpt lat="45.17072" lon="5.56139">
        <ele>1121</ele>
        <time>2015-10-31T10:42:09Z</time>
      </trkpt>
      <trkpt lat="45.17072" lon="5.56139">
        <ele>1121</ele>
        <time>2015-10-31T10:42:39Z</time>
      </trkpt>
      <trkpt lat="45.17072" lon="5.56138">
        <ele>1121</ele>
        <time>2015-10-31T10:43:09Z</time>
      </trkpt>
      <trkpt lat="45.17072" lon="5.56137">
        <ele>1121</ele>
        <time>2015-10-31T10:43:39Z</time>
      </trkpt>
      <trkpt lat="45.17118" lon="5.56083">
        <ele>1115</ele>
        <time>2015-10-31T10:44:09Z</time>
      </trkpt>
      <trkpt lat="45.17212" lon="5.56025">
        <ele>1110</ele>
        <time>2015-10-31T10:44:39Z</time>
      </trkpt>
      <trkpt lat="45.17406" lon="5.5604">
        <ele>1100</ele>
        <time>2015-10-31T10:45:09Z</time>
      </trkpt>
      <trkpt lat="45.17459" lon="5.55925">
        <ele>1100</ele>
        <time>2015-10-31T10:45:39Z</time>
      </trkpt>
      <trkpt lat="45.17637" lon="5.55952">
        <ele>1089</ele>
        <time>2015-10-31T10:46:09Z</time>
      </trkpt>
      <trkpt lat="45.17821" lon="5.56037">
        <ele>1080</ele>
        <time>2015-10-31T10:46:39Z</time>
      </trkpt>
      <trkpt lat="45.17963" lon="5.56164">
        <ele>1083</ele>
        <time>2015-10-31T10:47:09Z</time>
      </trkpt>
      <trkpt lat="45.18136" lon="5.56203">
        <ele>1082</ele>
        <time>2015-10-31T10:47:39Z</time>
      </trkpt>
      <trkpt lat="45.18304" lon="5.56238">
        <ele>1076</ele>
        <time>2015-10-31T10:48:09Z</time>
      </trkpt>
      <trkpt lat="45.18415" lon="5.56328">
        <ele>1081</ele>
        <time>2015-10-31T10:48:39Z</time>
      </trkpt>
      <trkpt lat="45.18497" lon="5.56421">
        <ele>1082</ele>
        <time>2015-10-31T10:49:09Z</time>
      </trkpt>
      <trkpt lat="45.18599" lon="5.56432">
        <ele>1090</ele>
        <time>2015-10-31T10:49:39Z</time>
      </trkpt>
      <trkpt lat="45.18701" lon="5.56476">
        <ele>1088</ele>
        <time>2015-10-31T10:50:09Z</time>
      </trkpt>
      <trkpt lat="45.18816" lon="5.56551">
        <ele>1087</ele>
        <time>2015-10-31T10:50:39Z</time>
      </trkpt>
      <trkpt lat="45.18941" lon="5.56606">
        <ele>1089</ele>
        <time>2015-10-31T10:51:09Z</time>
      </trkpt>
      <trkpt lat="45.19039" lon="5.56674">
        <ele>1091</ele>
        <time>2015-10-31T10:51:39Z</time>
      </trkpt>
      <trkpt lat="45.19103" lon="5.56775">
        <ele>1092</ele>
        <time>2015-10-31T10:52:09Z</time>
      </trkpt>
      <trkpt lat="45.19151" lon="5.56859">
        <ele>1101</ele>
        <time>2015-10-31T10:52:39Z</time>
      </trkpt>
      <trkpt lat="45.19203" lon="5.56929">
        <ele>1109</ele>
        <time>2015-10-31T10:53:09Z</time>
      </trkpt>
      <trkpt lat="45.19272" lon="5.56987">
        <ele>1110</ele>
        <time>2015-10-31T10:53:39Z</time>
      </trkpt>
      <trkpt lat="45.1932" lon="5.56983">
        <ele>1111</ele>
        <time>2015-10-31T10:54:09Z</time>
      </trkpt>
      <trkpt lat="45.19377" lon="5.57009">
        <ele>1114</ele>
        <time>2015-10-31T10:54:39Z</time>
      </trkpt>
      <trkpt lat="45.1944" lon="5.57066">
        <ele>1116</ele>
        <time>2015-10-31T10:55:09Z</time>
      </trkpt>
      <trkpt lat="45.19512" lon="5.57094">
        <ele>1115</ele>
        <time>2015-10-31T10:55:39Z</time>
      </trkpt>
      <trkpt lat="45.19672" lon="5.57128">
        <ele>1113</ele>
        <time>2015-10-31T10:56:09Z</time>
      </trkpt>
      <trkpt lat="45.1986" lon="5.57169">
        <ele>1121</ele>
        <time>2015-10-31T10:56:39Z</time>
      </trkpt>
      <trkpt lat="45.1996" lon="5.57268">
        <ele>1124</ele>
        <time>2015-10-31T10:57:09Z</time>
      </trkpt>
      <trkpt lat="45.2011" lon="5.57278">
        <ele>1129</ele>
        <time>2015-10-31T10:57:39Z</time>
      </trkpt>
      <trkpt lat="45.2012" lon="5.57278">
        <ele>1129</ele>
        <time>2015-10-31T10:58:09Z</time>
      </trkpt>
      <trkpt lat="45.20121" lon="5.5728">
        <ele>1129</ele>
        <time>2015-10-31T10:58:39Z</time>
      </trkpt>
      <trkpt lat="45.20121" lon="5.5728">
        <ele>1129</ele>
        <time>2015-10-31T10:59:09Z</time>
      </trkpt>
      <trkpt lat="45.20122" lon="5.57279">
        <ele>1129</ele>
        <time>2015-10-31T10:59:39Z</time>
      </trkpt>
      <trkpt lat="45.20204" lon="5.57273">
        <ele>1132</ele>
        <time>2015-10-31T11:00:09Z</time>
      </trkpt>
      <trkpt lat="45.20298" lon="5.57315">
        <ele>1134</ele>
        <time>2015-10-31T11:00:39Z</time>
      </trkpt>
      <trkpt lat="45.20396" lon="5.57372">
        <ele>1133</ele>
        <time>2015-10-31T11:01:09Z</time>
      </trkpt>
      <trkpt lat="45.20556" lon="5.57429">
        <ele>1138</ele>
        <time>2015-10-31T11:01:39Z</time>
      </trkpt>
      <trkpt lat="45.20697" lon="5.5746">
        <ele>1140</ele>
        <time>2015-10-31T11:02:09Z</time>
      </trkpt>
      <trkpt lat="45.20832" lon="5.57537">
        <ele>1145</ele>
        <time>2015-10-31T11:02:39Z</time>
      </trkpt>
      <trkpt lat="45.20906" lon="5.57548">
        <ele>1146</ele>
        <time>2015-10-31T11:03:09Z</time>
      </trkpt>
      <trkpt lat="45.20906" lon="5.57547">
        <ele>1146</ele>
        <time>2015-10-31T11:03:39Z</time>
      </trkpt>
      <trkpt lat="45.20906" lon="5.57547">
        <ele>1146</ele>
        <time>2015-10-31T11:04:09Z</time>
      </trkpt>
      <trkpt lat="45.20957" lon="5.57604">
        <ele>1148</ele>
        <time>2015-10-31T11:04:39Z</time>
      </trkpt>
      <trkpt lat="45.21055" lon="5.57664">
        <ele>1157</ele>
        <time>2015-10-31T11:05:09Z</time>
      </trkpt>
      <trkpt lat="45.21209" lon="5.57673">
        <ele>1168</ele>
        <time>2015-10-31T11:05:39Z</time>
      </trkpt>
      <trkpt lat="45.21359" lon="5.57685">
        <ele>1178</ele>
        <time>2015-10-31T11:06:09Z</time>
      </trkpt>
      <trkpt lat="45.21494" lon="5.57709">
        <ele>1185</ele>
        <time>2015-10-31T11:06:39Z</time>
      </trkpt>
      <trkpt lat="45.21545" lon="5.57732">
        <ele>1191</ele>
        <time>2015-10-31T11:07:09Z</time>
      </trkpt>
      <trkpt lat="45.21546" lon="5.57731">
        <ele>1191</ele>
        <time>2015-10-31T11:07:39Z</time>
      </trkpt>
      <trkpt lat="45.21548" lon="5.57733">
        <ele>1191</ele>
        <time>2015-10-31T11:08:09Z</time>
      </trkpt>
      <trkpt lat="45.21548" lon="5.57734">
        <ele>1191</ele>
        <time>2015-10-31T11:08:39Z</time>
      </trkpt>
      <trkpt lat="45.21547" lon="5.57732">
        <ele>1191</ele>
        <time>2015-10-31T11:09:09Z</time>
      </trkpt>
      <trkpt lat="45.21545" lon="5.57731">
        <ele>1191</ele>
        <time>2015-10-31T11:09:39Z</time>
      </trkpt>
      <trkpt lat="45.21545" lon="5.57729">
        <ele>1191</ele>
        <time>2015-10-31T11:10:09Z</time>
      </trkpt>
      <trkpt lat="45.21544" lon="5.57729">
        <ele>1191</ele>
        <time>2015-10-31T11:10:39Z</time>
      </trkpt>
      <trkpt lat="45.21544" lon="5.57728">
        <ele>1191</ele>
        <time>2015-10-31T11:11:09Z</time>
      </trkpt>
      <trkpt lat="45.21545" lon="5.57728">
        <ele>1191</ele>
        <time>2015-10-31T11:11:39Z</time>
      </trkpt>
      <trkpt lat="45.21546" lon="5.57728">
        <ele>1191</ele>
        <time>2015-10-31T11:12:09Z</time>
      </trkpt>
      <trkpt lat="45.21547" lon="5.57729">
        <ele>1191</ele>
        <time>2015-10-31T11:12:39Z</time>
      </trkpt>
      <trkpt lat="45.21545" lon="5.5773">
        <ele>1191</ele>
        <time>2015-10-31T11:13:09Z</time>
      </trkpt>
      <trkpt lat="45.21546" lon="5.5773">
        <ele>1191</ele>
        <time>2015-10-31T11:13:39Z</time>
      </trkpt>
      <trkpt lat="45.21546" lon="5.57731">
        <ele>1191</ele>
        <time>2015-10-31T11:14:09Z</time>
      </trkpt>
      <trkpt lat="45.21548" lon="5.57733">
        <ele>1191</ele>
        <time>2015-10-31T11:14:39Z</time>
      </trkpt>
      <trkpt lat="45.21547" lon="5.57732">
        <ele>1191</ele>
        <time>2015-10-31T11:15:09Z</time>
      </trkpt>
      <trkpt lat="45.21547" lon="5.57733">
        <ele>1191</ele>
        <time>2015-10-31T11:15:39Z</time>
      </trkpt>
      <trkpt lat="45.21557" lon="5.57734">
        <ele>1191</ele>
        <time>2015-10-31T11:16:09Z</time>
      </trkpt>
      <trkpt lat="45.2162" lon="5.57764">
        <ele>1198</ele>
        <time>2015-10-31T11:16:39Z</time>
      </trkpt>
      <trkpt lat="45.21678" lon="5.57793">
        <ele>1206</ele>
        <time>2015-10-31T11:17:09Z</time>
      </trkpt>
      <trkpt lat="45.2174" lon="5.57824">
        <ele>1206</ele>
        <time>2015-10-31T11:17:39Z</time>
      </trkpt>
      <trkpt lat="45.21804" lon="5.57854">
        <ele>1209</ele>
        <time>2015-10-31T11:18:09Z</time>
      </trkpt>
      <trkpt lat="45.21878" lon="5.57874">
        <ele>1215</ele>
        <time>2015-10-31T11:18:39Z</time>
      </trkpt>
      <trkpt lat="45.21948" lon="5.57898">
        <ele>1222</ele>
        <time>2015-10-31T11:19:09Z</time>
      </trkpt>
      <trkpt lat="45.22009" lon="5.57922">
        <ele>1223</ele>
        <time>2015-10-31T11:19:39Z</time>
      </trkpt>
      <trkpt lat="45.22072" lon="5.57938">
        <ele>1228</ele>
        <time>2015-10-31T11:20:09Z</time>
      </trkpt>
      <trkpt lat="45.22141" lon="5.57946">
        <ele>1235</ele>
        <time>2015-10-31T11:20:39Z</time>
      </trkpt>
      <trkpt lat="45.22216" lon="5.57958">
        <ele>1242</ele>
        <time>2015-10-31T11:21:09Z</time>
      </trkpt>
      <trkpt lat="45.22282" lon="5.57974">
        <ele>1247</ele>
        <time>2015-10-31T11:21:39Z</time>
      </trkpt>
      <trkpt lat="45.22344" lon="5.57988">
        <ele>1251</ele>
        <time>2015-10-31T11:22:09Z</time>
      </trkpt>
      <trkpt lat="45.22404" lon="5.58002">
        <ele>1253</ele>
        <time>2015-10-31T11:22:39Z</time>
      </trkpt>
      <trkpt lat="45.22464" lon="5.58029">
        <ele>1260</ele>
        <time>2015-10-31T11:23:09Z</time>
      </trkpt>
      <trkpt lat="45.22529" lon="5.58043">
        <ele>1267</ele>
        <time>2015-10-31T11:23:39Z</time>
      </trkpt>
      <trkpt lat="45.22598" lon="5.58046">
        <ele>1274</ele>
        <time>2015-10-31T11:24:09Z</time>
      </trkpt>
      <trkpt lat="45.22613" lon="5.58077">
        <ele>1273</ele>
        <time>2015-10-31T11:24:39Z</time>
      </trkpt>
      <trkpt lat="45.22619" lon="5.58045">
        <ele>1275</ele>
        <time>2015-10-31T11:25:09Z</time>
      </trkpt>
      <trkpt lat="45.22622" lon="5.58046">
        <ele>1275</ele>
        <time>2015-10-31T11:25:39Z</time>
      </trkpt>
      <trkpt lat="45.22622" lon="5.58046">
        <ele>1275</ele>
        <time>2015-10-31T11:26:09Z</time>
      </trkpt>
      <trkpt lat="45.22621" lon="5.58049">
        <ele>1275</ele>
        <time>2015-10-31T11:26:39Z</time>
      </trkpt>
      <trkpt lat="45.22621" lon="5.58048">
        <ele>1275</ele>
        <time>2015-10-31T11:27:09Z</time>
      </trkpt>
      <trkpt lat="45.2262" lon="5.58049">
        <ele>1275</ele>
        <time>2015-10-31T11:27:39Z</time>
      </trkpt>
      <trkpt lat="45.22621" lon="5.58046">
        <ele>1275</ele>
        <time>2015-10-31T11:28:09Z</time>
      </trkpt>
      <trkpt lat="45.2262" lon="5.58049">
        <ele>1275</ele>
        <time>2015-10-31T11:28:39Z</time>
      </trkpt>
      <trkpt lat="45.22619" lon="5.58049">
        <ele>1275</ele>
        <time>2015-10-31T11:29:09Z</time>
      </trkpt>
      <trkpt lat="45.22619" lon="5.58048">
        <ele>1275</ele>
        <time>2015-10-31T11:29:39Z</time>
      </trkpt>
      <trkpt lat="45.22619" lon="5.58048">
        <ele>1275</ele>
        <time>2015-10-31T11:30:09Z</time>
      </trkpt>
      <trkpt lat="45.22619" lon="5.58048">
        <ele>1275</ele>
        <time>2015-10-31T11:30:39Z</time>
      </trkpt>
      <trkpt lat="45.22619" lon="5.58047">
        <ele>1275</ele>
        <time>2015-10-31T11:31:09Z</time>
      </trkpt>
      <trkpt lat="45.22619" lon="5.58048">
        <ele>1275</ele>
        <time>2015-10-31T11:31:39Z</time>
      </trkpt>
      <trkpt lat="45.22618" lon="5.58049">
        <ele>1275</ele>
        <time>2015-10-31T11:32:09Z</time>
      </trkpt>
      <trkpt lat="45.22618" lon="5.58048">
        <ele>1275</ele>
        <time>2015-10-31T11:32:39Z</time>
      </trkpt>
      <trkpt lat="45.22619" lon="5.58047">
        <ele>1275</ele>
        <time>2015-10-31T11:33:09Z</time>
      </trkpt>
      <trkpt lat="45.22619" lon="5.58046">
        <ele>1275</ele>
        <time>2015-10-31T11:33:39Z</time>
      </trkpt>
      <trkpt lat="45.22617" lon="5.58048">
        <ele>1275</ele>
        <time>2015-10-31T11:34:09Z</time>
      </trkpt>
      <trkpt lat="45.22617" lon="5.58049">
        <ele>1275</ele>
        <time>2015-10-31T11:34:39Z</time>
      </trkpt>
      <trkpt lat="45.22617" lon="5.58048">
        <ele>1275</ele>
        <time>2015-10-31T11:35:09Z</time>
      </trkpt>
      <trkpt lat="45.22616" lon="5.58047">
        <ele>1275</ele>
        <time>2015-10-31T11:35:39Z</time>
      </trkpt>
      <trkpt lat="45.22618" lon="5.58048">
        <ele>1275</ele>
        <time>2015-10-31T11:36:09Z</time>
      </trkpt>
      <trkpt lat="45.22617" lon="5.58048">
        <ele>1275</ele>
        <time>2015-10-31T11:36:39Z</time>
      </trkpt>
      <trkpt lat="45.22618" lon="5.5805">
        <ele>1275</ele>
        <time>2015-10-31T11:37:09Z</time>
      </trkpt>
      <trkpt lat="45.2262" lon="5.58049">
        <ele>1275</ele>
        <time>2015-10-31T11:37:39Z</time>
      </trkpt>
      <trkpt lat="45.22619" lon="5.5805">
        <ele>1275</ele>
        <time>2015-10-31T11:38:09Z</time>
      </trkpt>
      <trkpt lat="45.22618" lon="5.58048">
        <ele>1275</ele>
        <time>2015-10-31T11:38:39Z</time>
      </trkpt>
      <trkpt lat="45.22618" lon="5.58048">
        <ele>1275</ele>
        <time>2015-10-31T11:39:09Z</time>
      </trkpt>
      <trkpt lat="45.22617" lon="5.58048">
        <ele>1275</ele>
        <time>2015-10-31T11:39:39Z</time>
      </trkpt>
      <trkpt lat="45.22618" lon="5.58045">
        <ele>1275</ele>
        <time>2015-10-31T11:40:09Z</time>
      </trkpt>
      <trkpt lat="45.22617" lon="5.58046">
        <ele>1275</ele>
        <time>2015-10-31T11:40:39Z</time>
      </trkpt>
      <trkpt lat="45.22618" lon="5.58047">
        <ele>1275</ele>
        <time>2015-10-31T11:41:09Z</time>
      </trkpt>
      <trkpt lat="45.22618" lon="5.58046">
        <ele>1275</ele>
        <time>2015-10-31T11:41:39Z</time>
      </trkpt>
      <trkpt lat="45.22617" lon="5.58047">
        <ele>1275</ele>
        <time>2015-10-31T11:42:09Z</time>
      </trkpt>
      <trkpt lat="45.22617" lon="5.58048">
        <ele>1275</ele>
        <time>2015-10-31T11:42:39Z</time>
      </trkpt>
      <trkpt lat="45.22617" lon="5.58047">
        <ele>1275</ele>
        <time>2015-10-31T11:43:09Z</time>
      </trkpt>
      <trkpt lat="45.22616" lon="5.58045">
        <ele>1275</ele>
        <time>2015-10-31T11:43:39Z</time>
      </trkpt>
      <trkpt lat="45.22616" lon="5.58045">
        <ele>1275</ele>
        <time>2015-10-31T11:44:09Z</time>
      </trkpt>
      <trkpt lat="45.22616" lon="5.58045">
        <ele>1275</ele>
        <time>2015-10-31T11:44:39Z</time>
      </trkpt>
      <trkpt lat="45.22616" lon="5.58046">
        <ele>1275</ele>
        <time>2015-10-31T11:45:09Z</time>
      </trkpt>
      <trkpt lat="45.22617" lon="5.58046">
        <ele>1275</ele>
        <time>2015-10-31T11:45:39Z</time>
      </trkpt>
      <trkpt lat="45.22618" lon="5.58047">
        <ele>1275</ele>
        <time>2015-10-31T11:46:09Z</time>
      </trkpt>
      <trkpt lat="45.22617" lon="5.58049">
        <ele>1275</ele>
        <time>2015-10-31T11:46:39Z</time>
      </trkpt>
      <trkpt lat="45.22616" lon="5.58048">
        <ele>1275</ele>
        <time>2015-10-31T11:47:09Z</time>
      </trkpt>
      <trkpt lat="45.22618" lon="5.58048">
        <ele>1275</ele>
        <time>2015-10-31T11:47:39Z</time>
      </trkpt>
      <trkpt lat="45.22618" lon="5.58049">
        <ele>1275</ele>
        <time>2015-10-31T11:48:09Z</time>
      </trkpt>
      <trkpt lat="45.22618" lon="5.58049">
        <ele>1275</ele>
        <time>2015-10-31T11:48:39Z</time>
      </trkpt>
      <trkpt lat="45.22618" lon="5.58048">
        <ele>1275</ele>
        <time>2015-10-31T11:49:09Z</time>
      </trkpt>
      <trkpt lat="45.22617" lon="5.5805">
        <ele>1275</ele>
        <time>2015-10-31T11:49:39Z</time>
      </trkpt>
      <trkpt lat="45.22616" lon="5.58048">
        <ele>1275</ele>
        <time>2015-10-31T11:50:09Z</time>
      </trkpt>
      <trkpt lat="45.22616" lon="5.58047">
        <ele>1275</ele>
        <time>2015-10-31T11:50:39Z</time>
      </trkpt>
      <trkpt lat="45.22619" lon="5.58047">
        <ele>1275</ele>
        <time>2015-10-31T11:51:09Z</time>
      </trkpt>
      <trkpt lat="45.22618" lon="5.58049">
        <ele>1275</ele>
        <time>2015-10-31T11:51:39Z</time>
      </trkpt>
      <trkpt lat="45.2262" lon="5.58048">
        <ele>1275</ele>
        <time>2015-10-31T11:52:09Z</time>
      </trkpt>
      <trkpt lat="45.22619" lon="5.58046">
        <ele>1275</ele>
        <time>2015-10-31T11:52:39Z</time>
      </trkpt>
      <trkpt lat="45.22618" lon="5.58047">
        <ele>1275</ele>
        <time>2015-10-31T11:53:09Z</time>
      </trkpt>
      <trkpt lat="45.22618" lon="5.58049">
        <ele>1275</ele>
        <time>2015-10-31T11:53:39Z</time>
      </trkpt>
      <trkpt lat="45.22619" lon="5.58048">
        <ele>1275</ele>
        <time>2015-10-31T11:54:09Z</time>
      </trkpt>
      <trkpt lat="45.22618" lon="5.58047">
        <ele>1275</ele>
        <time>2015-10-31T11:54:39Z</time>
      </trkpt>
      <trkpt lat="45.22617" lon="5.5805">
        <ele>1275</ele>
        <time>2015-10-31T11:55:09Z</time>
      </trkpt>
      <trkpt lat="45.22618" lon="5.58049">
        <ele>1275</ele>
        <time>2015-10-31T11:55:39Z</time>
      </trkpt>
      <trkpt lat="45.22618" lon="5.58048">
        <ele>1275</ele>
        <time>2015-10-31T11:56:09Z</time>
      </trkpt>
      <trkpt lat="45.22617" lon="5.58048">
        <ele>1275</ele>
        <time>2015-10-31T11:56:39Z</time>
      </trkpt>
      <trkpt lat="45.22615" lon="5.58043">
        <ele>1275</ele>
        <time>2015-10-31T11:57:09Z</time>
      </trkpt>
      <trkpt lat="45.2261" lon="5.58064">
        <ele>1274</ele>
        <time>2015-10-31T11:57:39Z</time>
      </trkpt>
      <trkpt lat="45.22577" lon="5.58124">
        <ele>1278</ele>
        <time>2015-10-31T11:58:09Z</time>
      </trkpt>
      <trkpt lat="45.22495" lon="5.58128">
        <ele>1275</ele>
        <time>2015-10-31T11:58:39Z</time>
      </trkpt>
      <trkpt lat="45.22405" lon="5.58129">
        <ele>1274</ele>
        <time>2015-10-31T11:59:09Z</time>
      </trkpt>
      <trkpt lat="45.22334" lon="5.58136">
        <ele>1276</ele>
        <time>2015-10-31T11:59:39Z</time>
      </trkpt>
      <trkpt lat="45.22249" lon="5.58167">
        <ele>1281</ele>
        <time>2015-10-31T12:00:09Z</time>
      </trkpt>
      <trkpt lat="45.22126" lon="5.58161">
        <ele>1265</ele>
        <time>2015-10-31T12:00:39Z</time>
      </trkpt>
      <trkpt lat="45.2206" lon="5.58167">
        <ele>1270</ele>
        <time>2015-10-31T12:01:09Z</time>
      </trkpt>
      <trkpt lat="45.21988" lon="5.58179">
        <ele>1293</ele>
        <time>2015-10-31T12:01:39Z</time>
      </trkpt>
      <trkpt lat="45.2192" lon="5.58187">
        <ele>1294</ele>
        <time>2015-10-31T12:02:09Z</time>
      </trkpt>
      <trkpt lat="45.21852" lon="5.58236">
        <ele>1304</ele>
        <time>2015-10-31T12:02:39Z</time>
      </trkpt>
      <trkpt lat="45.21763" lon="5.58241">
        <ele>1304</ele>
        <time>2015-10-31T12:03:09Z</time>
      </trkpt>
      <trkpt lat="45.21675" lon="5.58237">
        <ele>1312</ele>
        <time>2015-10-31T12:03:39Z</time>
      </trkpt>
      <trkpt lat="45.21592" lon="5.58205">
        <ele>1316</ele>
        <time>2015-10-31T12:04:09Z</time>
      </trkpt>
      <trkpt lat="45.21606" lon="5.58236">
        <ele>1323</ele>
        <time>2015-10-31T12:04:39Z</time>
      </trkpt>
      <trkpt lat="45.21672" lon="5.58289">
        <ele>1332</ele>
        <time>2015-10-31T12:05:09Z</time>
      </trkpt>
      <trkpt lat="45.21737" lon="5.58336">
        <ele>1343</ele>
        <time>2015-10-31T12:05:39Z</time>
      </trkpt>
      <trkpt lat="45.21762" lon="5.58367">
        <ele>1343</ele>
        <time>2015-10-31T12:06:09Z</time>
      </trkpt>
      <trkpt lat="45.21683" lon="5.58342">
        <ele>1356</ele>
        <time>2015-10-31T12:06:39Z</time>
      </trkpt>
      <trkpt lat="45.21593" lon="5.58302">
        <ele>1355</ele>
        <time>2015-10-31T12:07:09Z</time>
      </trkpt>
      <trkpt lat="45.21505" lon="5.58299">
        <ele>1369</ele>
        <time>2015-10-31T12:07:39Z</time>
      </trkpt>
      <trkpt lat="45.21418" lon="5.58272">
        <ele>1373</ele>
        <time>2015-10-31T12:08:09Z</time>
      </trkpt>
      <trkpt lat="45.21316" lon="5.58276">
        <ele>1390</ele>
        <time>2015-10-31T12:08:39Z</time>
      </trkpt>
      <trkpt lat="45.212" lon="5.58245">
        <ele>1375</ele>
        <time>2015-10-31T12:09:09Z</time>
      </trkpt>
      <trkpt lat="45.21078" lon="5.58217">
        <ele>1400</ele>
        <time>2015-10-31T12:09:39Z</time>
      </trkpt>
      <trkpt lat="45.20962" lon="5.58185">
        <ele>1414</ele>
        <time>2015-10-31T12:10:09Z</time>
      </trkpt>
      <trkpt lat="45.20847" lon="5.58159">
        <ele>1397</ele>
        <time>2015-10-31T12:10:39Z</time>
      </trkpt>
      <trkpt lat="45.20746" lon="5.58234">
        <ele>1420</ele>
        <time>2015-10-31T12:11:09Z</time>
      </trkpt>
      <trkpt lat="45.20628" lon="5.58141">
        <ele>1379</ele>
        <time>2015-10-31T12:11:39Z</time>
      </trkpt>
      <trkpt lat="45.20475" lon="5.58311">
        <ele>1399</ele>
        <time>2015-10-31T12:12:09Z</time>
      </trkpt>
      <trkpt lat="45.20379" lon="5.58208">
        <ele>1397</ele>
        <time>2015-10-31T12:12:39Z</time>
      </trkpt>
      <trkpt lat="45.20321" lon="5.58053">
        <ele>1399</ele>
        <time>2015-10-31T12:13:09Z</time>
      </trkpt>
      <trkpt lat="45.20212" lon="5.57994">
        <ele>1395</ele>
        <time>2015-10-31T12:13:39Z</time>
      </trkpt>
      <trkpt lat="45.201" lon="5.57962">
        <ele>1399</ele>
        <time>2015-10-31T12:14:09Z</time>
      </trkpt>
      <trkpt lat="45.20016" lon="5.57977">
        <ele>1416</ele>
        <time>2015-10-31T12:14:39Z</time>
      </trkpt>
      <trkpt lat="45.19897" lon="5.57911">
        <ele>1415</ele>
        <time>2015-10-31T12:15:09Z</time>
      </trkpt>
      <trkpt lat="45.19799" lon="5.57896">
        <ele>1425</ele>
        <time>2015-10-31T12:15:39Z</time>
      </trkpt>
      <trkpt lat="45.1969" lon="5.57906">
        <ele>1420</ele>
        <time>2015-10-31T12:16:09Z</time>
      </trkpt>
      <trkpt lat="45.19619" lon="5.58033">
        <ele>1428</ele>
        <time>2015-10-31T12:16:39Z</time>
      </trkpt>
      <trkpt lat="45.19546" lon="5.5817">
        <ele>1442</ele>
        <time>2015-10-31T12:17:09Z</time>
      </trkpt>
      <trkpt lat="45.19428" lon="5.58145">
        <ele>1431</ele>
        <time>2015-10-31T12:17:39Z</time>
      </trkpt>
      <trkpt lat="45.19303" lon="5.58165">
        <ele>1439</ele>
        <time>2015-10-31T12:18:09Z</time>
      </trkpt>
      <trkpt lat="45.19191" lon="5.58149">
        <ele>1452</ele>
        <time>2015-10-31T12:18:39Z</time>
      </trkpt>
      <trkpt lat="45.19111" lon="5.57973">
        <ele>1442</ele>
        <time>2015-10-31T12:19:09Z</time>
      </trkpt>
      <trkpt lat="45.19061" lon="5.57868">
        <ele>1429</ele>
        <time>2015-10-31T12:19:39Z</time>
      </trkpt>
      <trkpt lat="45.19064" lon="5.57868">
        <ele>1429</ele>
        <time>2015-10-31T12:20:09Z</time>
      </trkpt>
      <trkpt lat="45.19063" lon="5.57867">
        <ele>1429</ele>
        <time>2015-10-31T12:20:39Z</time>
      </trkpt>
      <trkpt lat="45.19062" lon="5.57868">
        <ele>1429</ele>
        <time>2015-10-31T12:21:09Z</time>
      </trkpt>
      <trkpt lat="45.19061" lon="5.5787">
        <ele>1429</ele>
        <time>2015-10-31T12:21:39Z</time>
      </trkpt>
      <trkpt lat="45.19062" lon="5.5787">
        <ele>1429</ele>
        <time>2015-10-31T12:22:09Z</time>
      </trkpt>
      <trkpt lat="45.19062" lon="5.57871">
        <ele>1430</ele>
        <time>2015-10-31T12:22:39Z</time>
      </trkpt>
      <trkpt lat="45.1906" lon="5.57873">
        <ele>1430</ele>
        <time>2015-10-31T12:23:09Z</time>
      </trkpt>
      <trkpt lat="45.1906" lon="5.57873">
        <ele>1430</ele>
        <time>2015-10-31T12:23:39Z</time>
      </trkpt>
      <trkpt lat="45.19061" lon="5.57874">
        <ele>1430</ele>
        <time>2015-10-31T12:24:09Z</time>
      </trkpt>
      <trkpt lat="45.19062" lon="5.57874">
        <ele>1430</ele>
        <time>2015-10-31T12:24:39Z</time>
      </trkpt>
      <trkpt lat="45.19064" lon="5.57872">
        <ele>1430</ele>
        <time>2015-10-31T12:25:09Z</time>
      </trkpt>
      <trkpt lat="45.19063" lon="5.5787">
        <ele>1430</ele>
        <time>2015-10-31T12:25:39Z</time>
      </trkpt>
      <trkpt lat="45.19063" lon="5.57871">
        <ele>1430</ele>
        <time>2015-10-31T12:26:09Z</time>
      </trkpt>
      <trkpt lat="45.19064" lon="5.57871">
        <ele>1430</ele>
        <time>2015-10-31T12:26:39Z</time>
      </trkpt>
      <trkpt lat="45.19063" lon="5.5787">
        <ele>1430</ele>
        <time>2015-10-31T12:27:09Z</time>
      </trkpt>
      <trkpt lat="45.19061" lon="5.57869">
        <ele>1429</ele>
        <time>2015-10-31T12:27:39Z</time>
      </trkpt>
      <trkpt lat="45.19061" lon="5.57868">
        <ele>1429</ele>
        <time>2015-10-31T12:28:09Z</time>
      </trkpt>
      <trkpt lat="45.19062" lon="5.57869">
        <ele>1429</ele>
        <time>2015-10-31T12:28:39Z</time>
      </trkpt>
      <trkpt lat="45.19062" lon="5.57869">
        <ele>1429</ele>
        <time>2015-10-31T12:29:09Z</time>
      </trkpt>
      <trkpt lat="45.19061" lon="5.57868">
        <ele>1429</ele>
        <time>2015-10-31T12:29:39Z</time>
      </trkpt>
      <trkpt lat="45.1906" lon="5.57869">
        <ele>1429</ele>
        <time>2015-10-31T12:30:09Z</time>
      </trkpt>
      <trkpt lat="45.1906" lon="5.57869">
        <ele>1429</ele>
        <time>2015-10-31T12:30:39Z</time>
      </trkpt>
      <trkpt lat="45.19061" lon="5.57869">
        <ele>1429</ele>
        <time>2015-10-31T12:31:09Z</time>
      </trkpt>
      <trkpt lat="45.19061" lon="5.57871">
        <ele>1429</ele>
        <time>2015-10-31T12:31:39Z</time>
      </trkpt>
      <trkpt lat="45.19062" lon="5.5787">
        <ele>1430</ele>
        <time>2015-10-31T12:32:09Z</time>
      </trkpt>
      <trkpt lat="45.19062" lon="5.57871">
        <ele>1430</ele>
        <time>2015-10-31T12:32:39Z</time>
      </trkpt>
      <trkpt lat="45.19062" lon="5.57871">
        <ele>1430</ele>
        <time>2015-10-31T12:33:09Z</time>
      </trkpt>
      <trkpt lat="45.19061" lon="5.57872">
        <ele>1430</ele>
        <time>2015-10-31T12:33:39Z</time>
      </trkpt>
      <trkpt lat="45.19062" lon="5.57872">
        <ele>1430</ele>
        <time>2015-10-31T12:34:09Z</time>
      </trkpt>
      <trkpt lat="45.19062" lon="5.57871">
        <ele>1430</ele>
        <time>2015-10-31T12:34:39Z</time>
      </trkpt>
      <trkpt lat="45.19062" lon="5.57871">
        <ele>1430</ele>
        <time>2015-10-31T12:35:09Z</time>
      </trkpt>
      <trkpt lat="45.19061" lon="5.57871">
        <ele>1430</ele>
        <time>2015-10-31T12:35:39Z</time>
      </trkpt>
      <trkpt lat="45.19063" lon="5.5787">
        <ele>1430</ele>
        <time>2015-10-31T12:36:09Z</time>
      </trkpt>
      <trkpt lat="45.19069" lon="5.57876">
        <ele>1431</ele>
        <time>2015-10-31T12:36:39Z</time>
      </trkpt>
      <trkpt lat="45.1909" lon="5.57987">
        <ele>1452</ele>
        <time>2015-10-31T12:37:09Z</time>
      </trkpt>
      <trkpt lat="45.19122" lon="5.58083">
        <ele>1460</ele>
        <time>2015-10-31T12:37:39Z</time>
      </trkpt>
      <trkpt lat="45.19143" lon="5.58226">
        <ele>1490</ele>
        <time>2015-10-31T12:38:09Z</time>
      </trkpt>
      <trkpt lat="45.19243" lon="5.58288">
        <ele>1487</ele>
        <time>2015-10-31T12:38:39Z</time>
      </trkpt>
      <trkpt lat="45.19345" lon="5.58338">
        <ele>1494</ele>
        <time>2015-10-31T12:39:09Z</time>
      </trkpt>
      <trkpt lat="45.19432" lon="5.5837">
        <ele>1498</ele>
        <time>2015-10-31T12:39:39Z</time>
      </trkpt>
      <trkpt lat="45.19505" lon="5.58449">
        <ele>1513</ele>
        <time>2015-10-31T12:40:09Z</time>
      </trkpt>
      <trkpt lat="45.19595" lon="5.58462">
        <ele>1517</ele>
        <time>2015-10-31T12:40:39Z</time>
      </trkpt>
      <trkpt lat="45.19675" lon="5.58522">
        <ele>1532</ele>
        <time>2015-10-31T12:41:09Z</time>
      </trkpt>
      <trkpt lat="45.19743" lon="5.58592">
        <ele>1545</ele>
        <time>2015-10-31T12:41:39Z</time>
      </trkpt>
      <trkpt lat="45.1982" lon="5.58609">
        <ele>1552</ele>
        <time>2015-10-31T12:42:09Z</time>
      </trkpt>
      <trkpt lat="45.19899" lon="5.58614">
        <ele>1562</ele>
        <time>2015-10-31T12:42:39Z</time>
      </trkpt>
      <trkpt lat="45.19913" lon="5.58621">
        <ele>1563</ele>
        <time>2015-10-31T12:43:09Z</time>
      </trkpt>
      <trkpt lat="45.19912" lon="5.58622">
        <ele>1563</ele>
        <time>2015-10-31T12:43:39Z</time>
      </trkpt>
      <trkpt lat="45.19913" lon="5.58625">
        <ele>1563</ele>
        <time>2015-10-31T12:44:09Z</time>
      </trkpt>
      <trkpt lat="45.19912" lon="5.58623">
        <ele>1563</ele>
        <time>2015-10-31T12:44:39Z</time>
      </trkpt>
      <trkpt lat="45.19912" lon="5.58623">
        <ele>1563</ele>
        <time>2015-10-31T12:45:09Z</time>
      </trkpt>
      <trkpt lat="45.19911" lon="5.58622">
        <ele>1563</ele>
        <time>2015-10-31T12:45:39Z</time>
      </trkpt>
      <trkpt lat="45.19911" lon="5.58622">
        <ele>1563</ele>
        <time>2015-10-31T12:46:09Z</time>
      </trkpt>
      <trkpt lat="45.19911" lon="5.58623">
        <ele>1563</ele>
        <time>2015-10-31T12:46:39Z</time>
      </trkpt>
      <trkpt lat="45.1991" lon="5.58623">
        <ele>1563</ele>
        <time>2015-10-31T12:47:09Z</time>
      </trkpt>
      <trkpt lat="45.1991" lon="5.58623">
        <ele>1563</ele>
        <time>2015-10-31T12:47:39Z</time>
      </trkpt>
      <trkpt lat="45.19911" lon="5.58624">
        <ele>1563</ele>
        <time>2015-10-31T12:48:09Z</time>
      </trkpt>
      <trkpt lat="45.19911" lon="5.58623">
        <ele>1563</ele>
        <time>2015-10-31T12:48:39Z</time>
      </trkpt>
      <trkpt lat="45.19912" lon="5.58622">
        <ele>1563</ele>
        <time>2015-10-31T12:49:09Z</time>
      </trkpt>
      <trkpt lat="45.19912" lon="5.58621">
        <ele>1563</ele>
        <time>2015-10-31T12:49:39Z</time>
      </trkpt>
      <trkpt lat="45.19913" lon="5.58617">
        <ele>1563</ele>
        <time>2015-10-31T12:50:09Z</time>
      </trkpt>
      <trkpt lat="45.19912" lon="5.58618">
        <ele>1563</ele>
        <time>2015-10-31T12:50:39Z</time>
      </trkpt>
      <trkpt lat="45.19913" lon="5.58618">
        <ele>1563</ele>
        <time>2015-10-31T12:51:09Z</time>
      </trkpt>
      <trkpt lat="45.19912" lon="5.58618">
        <ele>1563</ele>
        <time>2015-10-31T12:51:39Z</time>
      </trkpt>
      <trkpt lat="45.19912" lon="5.58618">
        <ele>1563</ele>
        <time>2015-10-31T12:52:09Z</time>
      </trkpt>
      <trkpt lat="45.19864" lon="5.58643">
        <ele>1562</ele>
        <time>2015-10-31T12:52:39Z</time>
      </trkpt>
      <trkpt lat="45.19805" lon="5.58661">
        <ele>1557</ele>
        <time>2015-10-31T12:53:09Z</time>
      </trkpt>
      <trkpt lat="45.19811" lon="5.58663">
        <ele>1558</ele>
        <time>2015-10-31T12:53:39Z</time>
      </trkpt>
      <trkpt lat="45.19814" lon="5.58665">
        <ele>1558</ele>
        <time>2015-10-31T12:54:09Z</time>
      </trkpt>
      <trkpt lat="45.19827" lon="5.5867">
        <ele>1565</ele>
        <time>2015-10-31T12:54:39Z</time>
      </trkpt>
      <trkpt lat="45.19857" lon="5.58695">
        <ele>1574</ele>
        <time>2015-10-31T12:55:09Z</time>
      </trkpt>
      <trkpt lat="45.1987" lon="5.58761">
        <ele>1588</ele>
        <time>2015-10-31T12:55:39Z</time>
      </trkpt>
      <trkpt lat="45.19868" lon="5.58836">
        <ele>1600</ele>
        <time>2015-10-31T12:56:09Z</time>
      </trkpt>
      <trkpt lat="45.19877" lon="5.58929">
        <ele>1614</ele>
        <time>2015-10-31T12:56:39Z</time>
      </trkpt>
      <trkpt lat="45.19881" lon="5.59014">
        <ele>1625</ele>
        <time>2015-10-31T12:57:09Z</time>
      </trkpt>
      <trkpt lat="45.19844" lon="5.59093">
        <ele>1630</ele>
        <time>2015-10-31T12:57:39Z</time>
      </trkpt>
      <trkpt lat="45.19785" lon="5.59125">
        <ele>1634</ele>
        <time>2015-10-31T12:58:09Z</time>
      </trkpt>
      <trkpt lat="45.19786" lon="5.59202">
        <ele>1633</ele>
        <time>2015-10-31T12:58:39Z</time>
      </trkpt>
      <trkpt lat="45.19786" lon="5.59203">
        <ele>1633</ele>
        <time>2015-10-31T12:59:09Z</time>
      </trkpt>
      <trkpt lat="45.19786" lon="5.59203">
        <ele>1633</ele>
        <time>2015-10-31T12:59:39Z</time>
      </trkpt>
      <trkpt lat="45.19785" lon="5.59203">
        <ele>1633</ele>
        <time>2015-10-31T13:00:09Z</time>
      </trkpt>
      <trkpt lat="45.19785" lon="5.59202">
        <ele>1633</ele>
        <time>2015-10-31T13:00:39Z</time>
      </trkpt>
      <trkpt lat="45.19785" lon="5.59202">
        <ele>1633</ele>
        <time>2015-10-31T13:01:09Z</time>
      </trkpt>
      <trkpt lat="45.19785" lon="5.59203">
        <ele>1633</ele>
        <time>2015-10-31T13:01:39Z</time>
      </trkpt>
      <trkpt lat="45.19785" lon="5.59202">
        <ele>1633</ele>
        <time>2015-10-31T13:02:09Z</time>
      </trkpt>
      <trkpt lat="45.19785" lon="5.59201">
        <ele>1633</ele>
        <time>2015-10-31T13:02:39Z</time>
      </trkpt>
      <trkpt lat="45.19785" lon="5.59201">
        <ele>1633</ele>
        <time>2015-10-31T13:03:09Z</time>
      </trkpt>
      <trkpt lat="45.19785" lon="5.59202">
        <ele>1633</ele>
        <time>2015-10-31T13:03:39Z</time>
      </trkpt>
      <trkpt lat="45.19785" lon="5.59202">
        <ele>1633</ele>
        <time>2015-10-31T13:04:09Z</time>
      </trkpt>
      <trkpt lat="45.19785" lon="5.59202">
        <ele>1633</ele>
        <time>2015-10-31T13:04:39Z</time>
      </trkpt>
      <trkpt lat="45.19786" lon="5.59202">
        <ele>1633</ele>
        <time>2015-10-31T13:05:09Z</time>
      </trkpt>
      <trkpt lat="45.19786" lon="5.59202">
        <ele>1633</ele>
        <time>2015-10-31T13:05:39Z</time>
      </trkpt>
      <trkpt lat="45.19772" lon="5.59198">
        <ele>1634</ele>
        <time>2015-10-31T13:06:09Z</time>
      </trkpt>
      <trkpt lat="45.19694" lon="5.59173">
        <ele>1643</ele>
        <time>2015-10-31T13:06:39Z</time>
      </trkpt>
      <trkpt lat="45.19665" lon="5.59161">
        <ele>1652</ele>
        <time>2015-10-31T13:07:09Z</time>
      </trkpt>
      <trkpt lat="45.19621" lon="5.59167">
        <ele>1652</ele>
        <time>2015-10-31T13:07:39Z</time>
      </trkpt>
      <trkpt lat="45.19512" lon="5.59203">
        <ele>1654</ele>
        <time>2015-10-31T13:08:09Z</time>
      </trkpt>
      <trkpt lat="45.19388" lon="5.59247">
        <ele>1649</ele>
        <time>2015-10-31T13:08:39Z</time>
      </trkpt>
      <trkpt lat="45.19271" lon="5.59224">
        <ele>1641</ele>
        <time>2015-10-31T13:09:09Z</time>
      </trkpt>
      <trkpt lat="45.19166" lon="5.59196">
        <ele>1650</ele>
        <time>2015-10-31T13:09:39Z</time>
      </trkpt>
      <trkpt lat="45.19142" lon="5.59189">
        <ele>1651</ele>
        <time>2015-10-31T13:10:09Z</time>
      </trkpt>
      <trkpt lat="45.19069" lon="5.59154">
        <ele>1672</ele>
        <time>2015-10-31T13:10:39Z</time>
      </trkpt>
      <trkpt lat="45.18985" lon="5.59138">
        <ele>1682</ele>
        <time>2015-10-31T13:11:09Z</time>
      </trkpt>
      <trkpt lat="45.18897" lon="5.59142">
        <ele>1688</ele>
        <time>2015-10-31T13:11:39Z</time>
      </trkpt>
      <trkpt lat="45.18812" lon="5.59156">
        <ele>1694</ele>
        <time>2015-10-31T13:12:09Z</time>
      </trkpt>
      <trkpt lat="45.18731" lon="5.59221">
        <ele>1696</ele>
        <time>2015-10-31T13:12:39Z</time>
      </trkpt>
      <trkpt lat="45.18654" lon="5.59251">
        <ele>1683</ele>
        <time>2015-10-31T13:13:09Z</time>
      </trkpt>
      <trkpt lat="45.18631" lon="5.59225">
        <ele>1694</ele>
        <time>2015-10-31T13:13:39Z</time>
      </trkpt>
      <trkpt lat="45.1863" lon="5.59227">
        <ele>1694</ele>
        <time>2015-10-31T13:14:09Z</time>
      </trkpt>
      <trkpt lat="45.18624" lon="5.59214">
        <ele>1695</ele>
        <time>2015-10-31T13:14:39Z</time>
      </trkpt>
      <trkpt lat="45.18563" lon="5.59117">
        <ele>1697</ele>
        <time>2015-10-31T13:15:09Z</time>
      </trkpt>
      <trkpt lat="45.18482" lon="5.59029">
        <ele>1682</ele>
        <time>2015-10-31T13:15:39Z</time>
      </trkpt>
      <trkpt lat="45.18483" lon="5.59029">
        <ele>1682</ele>
        <time>2015-10-31T13:16:09Z</time>
      </trkpt>
      <trkpt lat="45.1843" lon="5.58941">
        <ele>1687</ele>
        <time>2015-10-31T13:16:39Z</time>
      </trkpt>
      <trkpt lat="45.18308" lon="5.58808">
        <ele>1669</ele>
        <time>2015-10-31T13:17:09Z</time>
      </trkpt>
      <trkpt lat="45.18165" lon="5.58714">
        <ele>1654</ele>
        <time>2015-10-31T13:17:39Z</time>
      </trkpt>
      <trkpt lat="45.18018" lon="5.58615">
        <ele>1658</ele>
        <time>2015-10-31T13:18:09Z</time>
      </trkpt>
      <trkpt lat="45.17922" lon="5.58577">
        <ele>1659</ele>
        <time>2015-10-31T13:18:39Z</time>
      </trkpt>
      <trkpt lat="45.17842" lon="5.58606">
        <ele>1657</ele>
        <time>2015-10-31T13:19:09Z</time>
      </trkpt>
      <trkpt lat="45.17754" lon="5.58638">
        <ele>1661</ele>
        <time>2015-10-31T13:19:39Z</time>
      </trkpt>
      <trkpt lat="45.1767" lon="5.58649">
        <ele>1670</ele>
        <time>2015-10-31T13:20:09Z</time>
      </trkpt>
      <trkpt lat="45.17582" lon="5.5859">
        <ele>1681</ele>
        <time>2015-10-31T13:20:39Z</time>
      </trkpt>
      <trkpt lat="45.17461" lon="5.58547">
        <ele>1670</ele>
        <time>2015-10-31T13:21:09Z</time>
      </trkpt>
      <trkpt lat="45.17364" lon="5.5847">
        <ele>1662</ele>
        <time>2015-10-31T13:21:39Z</time>
      </trkpt>
      <trkpt lat="45.17287" lon="5.58402">
        <ele>1651</ele>
        <time>2015-10-31T13:22:09Z</time>
      </trkpt>
      <trkpt lat="45.1718" lon="5.58396">
        <ele>1630</ele>
        <time>2015-10-31T13:22:39Z</time>
      </trkpt>
      <trkpt lat="45.17166" lon="5.58397">
        <ele>1625</ele>
        <time>2015-10-31T13:23:09Z</time>
      </trkpt>
      <trkpt lat="45.17167" lon="5.58396">
        <ele>1629</ele>
        <time>2015-10-31T13:23:39Z</time>
      </trkpt>
      <trkpt lat="45.17167" lon="5.58395">
        <ele>1629</ele>
        <time>2015-10-31T13:24:09Z</time>
      </trkpt>
      <trkpt lat="45.17109" lon="5.58371">
        <ele>1626</ele>
        <time>2015-10-31T13:24:39Z</time>
      </trkpt>
      <trkpt lat="45.17057" lon="5.58353">
        <ele>1636</ele>
        <time>2015-10-31T13:25:09Z</time>
      </trkpt>
      <trkpt lat="45.17054" lon="5.58351">
        <ele>1637</ele>
        <time>2015-10-31T13:25:39Z</time>
      </trkpt>
      <trkpt lat="45.17017" lon="5.58351">
        <ele>1642</ele>
        <time>2015-10-31T13:26:09Z</time>
      </trkpt>
      <trkpt lat="45.16987" lon="5.58367">
        <ele>1648</ele>
        <time>2015-10-31T13:26:39Z</time>
      </trkpt>
      <trkpt lat="45.16974" lon="5.58376">
        <ele>1647</ele>
        <time>2015-10-31T13:27:09Z</time>
      </trkpt>
      <trkpt lat="45.16973" lon="5.58375">
        <ele>1648</ele>
        <time>2015-10-31T13:27:39Z</time>
      </trkpt>
      <trkpt lat="45.16973" lon="5.58376">
        <ele>1648</ele>
        <time>2015-10-31T13:28:09Z</time>
      </trkpt>
      <trkpt lat="45.16972" lon="5.58375">
        <ele>1648</ele>
        <time>2015-10-31T13:28:39Z</time>
      </trkpt>
      <trkpt lat="45.16972" lon="5.58375">
        <ele>1648</ele>
        <time>2015-10-31T13:29:09Z</time>
      </trkpt>
      <trkpt lat="45.16973" lon="5.58375">
        <ele>1648</ele>
        <time>2015-10-31T13:29:39Z</time>
      </trkpt>
      <trkpt lat="45.16973" lon="5.58376">
        <ele>1647</ele>
        <time>2015-10-31T13:30:09Z</time>
      </trkpt>
      <trkpt lat="45.16973" lon="5.58375">
        <ele>1648</ele>
        <time>2015-10-31T13:30:39Z</time>
      </trkpt>
      <trkpt lat="45.16973" lon="5.58374">
        <ele>1648</ele>
        <time>2015-10-31T13:31:09Z</time>
      </trkpt>
      <trkpt lat="45.16973" lon="5.58373">
        <ele>1648</ele>
        <time>2015-10-31T13:31:39Z</time>
      </trkpt>
      <trkpt lat="45.16973" lon="5.58373">
        <ele>1648</ele>
        <time>2015-10-31T13:32:09Z</time>
      </trkpt>
      <trkpt lat="45.16972" lon="5.58374">
        <ele>1648</ele>
        <time>2015-10-31T13:32:39Z</time>
      </trkpt>
      <trkpt lat="45.16972" lon="5.58374">
        <ele>1648</ele>
        <time>2015-10-31T13:33:09Z</time>
      </trkpt>
      <trkpt lat="45.16972" lon="5.58375">
        <ele>1648</ele>
        <time>2015-10-31T13:33:39Z</time>
      </trkpt>
      <trkpt lat="45.16972" lon="5.58375">
        <ele>1648</ele>
        <time>2015-10-31T13:34:09Z</time>
      </trkpt>
      <trkpt lat="45.16972" lon="5.58375">
        <ele>1648</ele>
        <time>2015-10-31T13:34:39Z</time>
      </trkpt>
      <trkpt lat="45.16972" lon="5.58375">
        <ele>1648</ele>
        <time>2015-10-31T13:35:09Z</time>
      </trkpt>
      <trkpt lat="45.16972" lon="5.58374">
        <ele>1648</ele>
        <time>2015-10-31T13:35:39Z</time>
      </trkpt>
      <trkpt lat="45.16973" lon="5.58374">
        <ele>1648</ele>
        <time>2015-10-31T13:36:09Z</time>
      </trkpt>
      <trkpt lat="45.16973" lon="5.58373">
        <ele>1648</ele>
        <time>2015-10-31T13:36:39Z</time>
      </trkpt>
      <trkpt lat="45.16973" lon="5.58373">
        <ele>1648</ele>
        <time>2015-10-31T13:37:09Z</time>
      </trkpt>
      <trkpt lat="45.16973" lon="5.58374">
        <ele>1648</ele>
        <time>2015-10-31T13:37:39Z</time>
      </trkpt>
      <trkpt lat="45.16972" lon="5.58374">
        <ele>1648</ele>
        <time>2015-10-31T13:38:09Z</time>
      </trkpt>
      <trkpt lat="45.16972" lon="5.58374">
        <ele>1648</ele>
        <time>2015-10-31T13:38:39Z</time>
      </trkpt>
      <trkpt lat="45.16971" lon="5.58374">
        <ele>1648</ele>
        <time>2015-10-31T13:39:09Z</time>
      </trkpt>
      <trkpt lat="45.16889" lon="5.58352">
        <ele>1646</ele>
        <time>2015-10-31T13:39:39Z</time>
      </trkpt>
      <trkpt lat="45.1673" lon="5.58313">
        <ele>1640</ele>
        <time>2015-10-31T13:40:09Z</time>
      </trkpt>
      <trkpt lat="45.16631" lon="5.58291">
        <ele>1642</ele>
        <time>2015-10-31T13:40:39Z</time>
      </trkpt>
      <trkpt lat="45.16539" lon="5.5826">
        <ele>1642</ele>
        <time>2015-10-31T13:41:09Z</time>
      </trkpt>
      <trkpt lat="45.16487" lon="5.58247">
        <ele>1647</ele>
        <time>2015-10-31T13:41:39Z</time>
      </trkpt>
      <trkpt lat="45.16479" lon="5.58239">
        <ele>1646</ele>
        <time>2015-10-31T13:42:09Z</time>
      </trkpt>
      <trkpt lat="45.16393" lon="5.58145">
        <ele>1646</ele>
        <time>2015-10-31T13:42:39Z</time>
      </trkpt>
      <trkpt lat="45.1638" lon="5.58112">
        <ele>1646</ele>
        <time>2015-10-31T13:43:09Z</time>
      </trkpt>
      <trkpt lat="45.16313" lon="5.58073">
        <ele>1658</ele>
        <time>2015-10-31T13:43:39Z</time>
      </trkpt>
      <trkpt lat="45.16281" lon="5.58066">
        <ele>1658</ele>
        <time>2015-10-31T13:44:09Z</time>
      </trkpt>
      <trkpt lat="45.16276" lon="5.58067">
        <ele>1658</ele>
        <time>2015-10-31T13:44:39Z</time>
      </trkpt>
      <trkpt lat="45.16273" lon="5.58066">
        <ele>1658</ele>
        <time>2015-10-31T13:45:09Z</time>
      </trkpt>
      <trkpt lat="45.16272" lon="5.58067">
        <ele>1658</ele>
        <time>2015-10-31T13:45:39Z</time>
      </trkpt>
      <trkpt lat="45.16273" lon="5.58067">
        <ele>1658</ele>
        <time>2015-10-31T13:46:09Z</time>
      </trkpt>
      <trkpt lat="45.16275" lon="5.58065">
        <ele>1658</ele>
        <time>2015-10-31T13:46:39Z</time>
      </trkpt>
      <trkpt lat="45.16276" lon="5.58066">
        <ele>1658</ele>
        <time>2015-10-31T13:47:09Z</time>
      </trkpt>
      <trkpt lat="45.16275" lon="5.58064">
        <ele>1658</ele>
        <time>2015-10-31T13:47:39Z</time>
      </trkpt>
      <trkpt lat="45.16273" lon="5.58064">
        <ele>1658</ele>
        <time>2015-10-31T13:48:09Z</time>
      </trkpt>
      <trkpt lat="45.16273" lon="5.58066">
        <ele>1658</ele>
        <time>2015-10-31T13:48:39Z</time>
      </trkpt>
      <trkpt lat="45.16273" lon="5.58067">
        <ele>1658</ele>
        <time>2015-10-31T13:49:09Z</time>
      </trkpt>
      <trkpt lat="45.16274" lon="5.58067">
        <ele>1658</ele>
        <time>2015-10-31T13:49:39Z</time>
      </trkpt>
      <trkpt lat="45.16233" lon="5.58057">
        <ele>1659</ele>
        <time>2015-10-31T13:50:09Z</time>
      </trkpt>
      <trkpt lat="45.16092" lon="5.58042">
        <ele>1658</ele>
        <time>2015-10-31T13:50:39Z</time>
      </trkpt>
      <trkpt lat="45.15941" lon="5.5799">
        <ele>1651</ele>
        <time>2015-10-31T13:51:09Z</time>
      </trkpt>
      <trkpt lat="45.15831" lon="5.57897">
        <ele>1648</ele>
        <time>2015-10-31T13:51:39Z</time>
      </trkpt>
      <trkpt lat="45.15664" lon="5.57863">
        <ele>1636</ele>
        <time>2015-10-31T13:52:09Z</time>
      </trkpt>
      <trkpt lat="45.1564" lon="5.57866">
        <ele>1635</ele>
        <time>2015-10-31T13:52:39Z</time>
      </trkpt>
      <trkpt lat="45.15553" lon="5.57842">
        <ele>1629</ele>
        <time>2015-10-31T13:53:09Z</time>
      </trkpt>
      <trkpt lat="45.15443" lon="5.57781">
        <ele>1630</ele>
        <time>2015-10-31T13:53:39Z</time>
      </trkpt>
      <trkpt lat="45.15409" lon="5.57793">
        <ele>1627</ele>
        <time>2015-10-31T13:54:09Z</time>
      </trkpt>
      <trkpt lat="45.15355" lon="5.57782">
        <ele>1624</ele>
        <time>2015-10-31T13:54:39Z</time>
      </trkpt>
      <trkpt lat="45.15201" lon="5.57723">
        <ele>1606</ele>
        <time>2015-10-31T13:55:09Z</time>
      </trkpt>
      <trkpt lat="45.15045" lon="5.57688">
        <ele>1581</ele>
        <time>2015-10-31T13:55:39Z</time>
      </trkpt>
      <trkpt lat="45.14879" lon="5.57644">
        <ele>1571</ele>
        <time>2015-10-31T13:56:09Z</time>
      </trkpt>
      <trkpt lat="45.14676" lon="5.5757">
        <ele>1558</ele>
        <time>2015-10-31T13:56:39Z</time>
      </trkpt>
      <trkpt lat="45.1443" lon="5.57526">
        <ele>1533</ele>
        <time>2015-10-31T13:57:09Z</time>
      </trkpt>
      <trkpt lat="45.14329" lon="5.57561">
        <ele>1514</ele>
        <time>2015-10-31T13:57:39Z</time>
      </trkpt>
      <trkpt lat="45.14294" lon="5.5756">
        <ele>1511</ele>
        <time>2015-10-31T13:58:09Z</time>
      </trkpt>
      <trkpt lat="45.14224" lon="5.57516">
        <ele>1501</ele>
        <time>2015-10-31T13:58:39Z</time>
      </trkpt>
      <trkpt lat="45.14112" lon="5.57481">
        <ele>1495</ele>
        <time>2015-10-31T13:59:09Z</time>
      </trkpt>
      <trkpt lat="45.14086" lon="5.5747">
        <ele>1494</ele>
        <time>2015-10-31T13:59:39Z</time>
      </trkpt>
      <trkpt lat="45.13962" lon="5.57427">
        <ele>1470</ele>
        <time>2015-10-31T14:00:09Z</time>
      </trkpt>
      <trkpt lat="45.13848" lon="5.57402">
        <ele>1456</ele>
        <time>2015-10-31T14:00:39Z</time>
      </trkpt>
      <trkpt lat="45.13751" lon="5.57412">
        <ele>1433</ele>
        <time>2015-10-31T14:01:09Z</time>
      </trkpt>
      <trkpt lat="45.13747" lon="5.57414">
        <ele>1431</ele>
        <time>2015-10-31T14:01:39Z</time>
      </trkpt>
      <trkpt lat="45.13734" lon="5.57408">
        <ele>1430</ele>
        <time>2015-10-31T14:02:09Z</time>
      </trkpt>
      <trkpt lat="45.13675" lon="5.57385">
        <ele>1425</ele>
        <time>2015-10-31T14:02:39Z</time>
      </trkpt>
      <trkpt lat="45.13574" lon="5.57332">
        <ele>1421</ele>
        <time>2015-10-31T14:03:09Z</time>
      </trkpt>
      <trkpt lat="45.13423" lon="5.5727">
        <ele>1404</ele>
        <time>2015-10-31T14:03:39Z</time>
      </trkpt>
      <trkpt lat="45.13291" lon="5.57157">
        <ele>1398</ele>
        <time>2015-10-31T14:04:09Z</time>
      </trkpt>
      <trkpt lat="45.13279" lon="5.57149">
        <ele>1397</ele>
        <time>2015-10-31T14:04:39Z</time>
      </trkpt>
      <trkpt lat="45.13278" lon="5.57148">
        <ele>1397</ele>
        <time>2015-10-31T14:05:09Z</time>
      </trkpt>
      <trkpt lat="45.13276" lon="5.57147">
        <ele>1397</ele>
        <time>2015-10-31T14:05:39Z</time>
      </trkpt>
      <trkpt lat="45.13277" lon="5.57146">
        <ele>1397</ele>
        <time>2015-10-31T14:06:09Z</time>
      </trkpt>
      <trkpt lat="45.13277" lon="5.57147">
        <ele>1397</ele>
        <time>2015-10-31T14:06:39Z</time>
      </trkpt>
      <trkpt lat="45.1321" lon="5.57129">
        <ele>1389</ele>
        <time>2015-10-31T14:07:09Z</time>
      </trkpt>
      <trkpt lat="45.13105" lon="5.57091">
        <ele>1375</ele>
        <time>2015-10-31T14:07:39Z</time>
      </trkpt>
      <trkpt lat="45.13022" lon="5.57093">
        <ele>1352</ele>
        <time>2015-10-31T14:08:09Z</time>
      </trkpt>
      <trkpt lat="45.13006" lon="5.57087">
        <ele>1355</ele>
        <time>2015-10-31T14:08:39Z</time>
      </trkpt>
      <trkpt lat="45.13004" lon="5.57086">
        <ele>1356</ele>
        <time>2015-10-31T14:09:09Z</time>
      </trkpt>
      <trkpt lat="45.12994" lon="5.57078">
        <ele>1356</ele>
        <time>2015-10-31T14:09:39Z</time>
      </trkpt>
      <trkpt lat="45.12976" lon="5.5708">
        <ele>1352</ele>
        <time>2015-10-31T14:10:09Z</time>
      </trkpt>
      <trkpt lat="45.12894" lon="5.57037">
        <ele>1331</ele>
        <time>2015-10-31T14:10:39Z</time>
      </trkpt>
      <trkpt lat="45.12851" lon="5.5703">
        <ele>1326</ele>
        <time>2015-10-31T14:11:09Z</time>
      </trkpt>
      <trkpt lat="45.12769" lon="5.5698">
        <ele>1320</ele>
        <time>2015-10-31T14:11:39Z</time>
      </trkpt>
      <trkpt lat="45.12756" lon="5.56966">
        <ele>1320</ele>
        <time>2015-10-31T14:12:09Z</time>
      </trkpt>
      <trkpt lat="45.12727" lon="5.56929">
        <ele>1310</ele>
        <time>2015-10-31T14:12:39Z</time>
      </trkpt>
      <trkpt lat="45.1274" lon="5.56844">
        <ele>1307</ele>
        <time>2015-10-31T14:13:09Z</time>
      </trkpt>
      <trkpt lat="45.12618" lon="5.56785">
        <ele>1285</ele>
        <time>2015-10-31T14:13:39Z</time>
      </trkpt>
      <trkpt lat="45.12564" lon="5.56793">
        <ele>1274</ele>
        <time>2015-10-31T14:14:09Z</time>
      </trkpt>
      <trkpt lat="45.12563" lon="5.56792">
        <ele>1273</ele>
        <time>2015-10-31T14:14:39Z</time>
      </trkpt>
      <trkpt lat="45.12566" lon="5.5679">
        <ele>1273</ele>
        <time>2015-10-31T14:15:09Z</time>
      </trkpt>
      <trkpt lat="45.12565" lon="5.56789">
        <ele>1273</ele>
        <time>2015-10-31T14:15:39Z</time>
      </trkpt>
      <trkpt lat="45.12564" lon="5.5679">
        <ele>1273</ele>
        <time>2015-10-31T14:16:09Z</time>
      </trkpt>
      <trkpt lat="45.12556" lon="5.56795">
        <ele>1273</ele>
        <time>2015-10-31T14:16:39Z</time>
      </trkpt>
      <trkpt lat="45.1249" lon="5.56778">
        <ele>1261</ele>
        <time>2015-10-31T14:17:09Z</time>
      </trkpt>
      <trkpt lat="45.12413" lon="5.56787">
        <ele>1251</ele>
        <time>2015-10-31T14:17:39Z</time>
      </trkpt>
      <trkpt lat="45.12378" lon="5.56833">
        <ele>1249</ele>
        <time>2015-10-31T14:18:09Z</time>
      </trkpt>
      <trkpt lat="45.12374" lon="5.56836">
        <ele>1242</ele>
        <time>2015-10-31T14:18:39Z</time>
      </trkpt>
      <trkpt lat="45.12295" lon="5.56821">
        <ele>1232</ele>
        <time>2015-10-31T14:19:09Z</time>
      </trkpt>
      <trkpt lat="45.12202" lon="5.56843">
        <ele>1205</ele>
        <time>2015-10-31T14:19:39Z</time>
      </trkpt>
      <trkpt lat="45.12151" lon="5.56863">
        <ele>1189</ele>
        <time>2015-10-31T14:20:09Z</time>
      </trkpt>
      <trkpt lat="45.12146" lon="5.56865">
        <ele>1188</ele>
        <time>2015-10-31T14:20:39Z</time>
      </trkpt>
      <trkpt lat="45.12114" lon="5.56873">
        <ele>1182</ele>
        <time>2015-10-31T14:21:09Z</time>
      </trkpt>
      <trkpt lat="45.12001" lon="5.56824">
        <ele>1168</ele>
        <time>2015-10-31T14:21:39Z</time>
      </trkpt>
      <trkpt lat="45.11957" lon="5.5684">
        <ele>1149</ele>
        <time>2015-10-31T14:22:09Z</time>
      </trkpt>
      <trkpt lat="45.11915" lon="5.56855">
        <ele>1133</ele>
        <time>2015-10-31T14:22:39Z</time>
      </trkpt>
      <trkpt lat="45.11864" lon="5.56865">
        <ele>1123</ele>
        <time>2015-10-31T14:23:09Z</time>
      </trkpt>
      <trkpt lat="45.11865" lon="5.56863">
        <ele>1123</ele>
        <time>2015-10-31T14:23:39Z</time>
      </trkpt>
      <trkpt lat="45.11864" lon="5.56865">
        <ele>1123</ele>
        <time>2015-10-31T14:24:09Z</time>
      </trkpt>
      <trkpt lat="45.11864" lon="5.56863">
        <ele>1123</ele>
        <time>2015-10-31T14:24:39Z</time>
      </trkpt>
      <trkpt lat="45.11863" lon="5.56863">
        <ele>1123</ele>
        <time>2015-10-31T14:25:09Z</time>
      </trkpt>
      <trkpt lat="45.11866" lon="5.56855">
        <ele>1123</ele>
        <time>2015-10-31T14:25:39Z</time>
      </trkpt>
      <trkpt lat="45.11845" lon="5.56842">
        <ele>1119</ele>
        <time>2015-10-31T14:26:09Z</time>
      </trkpt>
      <trkpt lat="45.11836" lon="5.56799">
        <ele>1124</ele>
        <time>2015-10-31T14:26:39Z</time>
      </trkpt>
      <trkpt lat="45.11837" lon="5.56798">
        <ele>1124</ele>
        <time>2015-10-31T14:27:09Z</time>
      </trkpt>
      <trkpt lat="45.118" lon="5.56867">
        <ele>1100</ele>
        <time>2015-10-31T14:27:39Z</time>
      </trkpt>
      <trkpt lat="45.11766" lon="5.56886">
        <ele>1095</ele>
        <time>2015-10-31T14:28:09Z</time>
      </trkpt>
      <trkpt lat="45.11761" lon="5.56899">
        <ele>1092</ele>
        <time>2015-10-31T14:28:39Z</time>
      </trkpt>
      <trkpt lat="45.11739" lon="5.56899">
        <ele>1078</ele>
        <time>2015-10-31T14:29:09Z</time>
      </trkpt>
      <trkpt lat="45.11722" lon="5.56845">
        <ele>1078</ele>
        <time>2015-10-31T14:29:39Z</time>
      </trkpt>
      <trkpt lat="45.1171" lon="5.5682">
        <ele>1086</ele>
        <time>2015-10-31T14:30:09Z</time>
      </trkpt>
      <trkpt lat="45.11704" lon="5.56814">
        <ele>1086</ele>
        <time>2015-10-31T14:30:39Z</time>
      </trkpt>
      <trkpt lat="45.11682" lon="5.56821">
        <ele>1079</ele>
        <time>2015-10-31T14:31:09Z</time>
      </trkpt>
      <trkpt lat="45.11666" lon="5.56831">
        <ele>1067</ele>
        <time>2015-10-31T14:31:39Z</time>
      </trkpt>
      <trkpt lat="45.1165" lon="5.56854">
        <ele>1055</ele>
        <time>2015-10-31T14:32:09Z</time>
      </trkpt>
      <trkpt lat="45.11651" lon="5.56861">
        <ele>1054</ele>
        <time>2015-10-31T14:32:39Z</time>
      </trkpt>
      <trkpt lat="45.11658" lon="5.57037">
        <ele>1024</ele>
        <time>2015-10-31T14:33:09Z</time>
      </trkpt>
      <trkpt lat="45.11662" lon="5.57126">
        <ele>1017</ele>
        <time>2015-10-31T14:33:39Z</time>
      </trkpt>
      <trkpt lat="45.11677" lon="5.57142">
        <ele>1018</ele>
        <time>2015-10-31T14:34:09Z</time>
      </trkpt>
    </trkseg>
  </trk>
  <trk>
    <name><![CDATA[20180518102317-gin7N]]></name>
    <trkseg>
      <trkpt lat="45.11405" lon="5.56901">
        <ele>1006</ele>
      </trkpt>
      <trkpt lat="45.11355" lon="5.56886">
        <ele>1006</ele>
      </trkpt>
      <trkpt lat="45.11328" lon="5.5688">
        <ele>1003</ele>
      </trkpt>
      <trkpt lat="45.11283" lon="5.56871">
        <ele>1003</ele>
      </trkpt>
      <trkpt lat="45.11265" lon="5.56868">
        <ele>1002</ele>
      </trkpt>
      <trkpt lat="45.11237" lon="5.56859">
        <ele>999</ele>
      </trkpt>
      <trkpt lat="45.11228" lon="5.56881">
        <ele>998</ele>
      </trkpt>
      <trkpt lat="45.11218" lon="5.569">
        <ele>997</ele>
      </trkpt>
      <trkpt lat="45.11209" lon="5.56917">
        <ele>995</ele>
      </trkpt>
      <trkpt lat="45.11187" lon="5.56947">
        <ele>995</ele>
      </trkpt>
      <trkpt lat="45.11161" lon="5.56957">
        <ele>993</ele>
      </trkpt>
      <trkpt lat="45.11136" lon="5.56963">
        <ele>993</ele>
      </trkpt>
      <trkpt lat="45.11112" lon="5.56975">
        <ele>993</ele>
      </trkpt>
      <trkpt lat="45.1109" lon="5.56988">
        <ele>993</ele>
      </trkpt>
      <trkpt lat="45.11067" lon="5.57003">
        <ele>992</ele>
      </trkpt>
      <trkpt lat="45.11043" lon="5.57022">
        <ele>991</ele>
      </trkpt>
      <trkpt lat="45.11016" lon="5.57034">
        <ele>990</ele>
      </trkpt>
      <trkpt lat="45.1099" lon="5.57049">
        <ele>987</ele>
      </trkpt>
      <trkpt lat="45.10967" lon="5.57062">
        <ele>986</ele>
      </trkpt>
      <trkpt lat="45.10948" lon="5.5709">
        <ele>987</ele>
      </trkpt>
      <trkpt lat="45.10941" lon="5.57101">
        <ele>987</ele>
      </trkpt>
      <trkpt lat="45.10925" lon="5.57128">
        <ele>988</ele>
      </trkpt>
      <trkpt lat="45.10915" lon="5.57144">
        <ele>989</ele>
      </trkpt>
      <trkpt lat="45.10898" lon="5.57167">
        <ele>992</ele>
      </trkpt>
      <trkpt lat="45.10889" lon="5.5718">
        <ele>993</ele>
      </trkpt>
      <trkpt lat="45.10879" lon="5.57193">
        <ele>993</ele>
      </trkpt>
      <trkpt lat="45.10863" lon="5.57213">
        <ele>993</ele>
      </trkpt>
      <trkpt lat="45.10846" lon="5.57234">
        <ele>994</ele>
      </trkpt>
      <trkpt lat="45.10837" lon="5.57246">
        <ele>994</ele>
      </trkpt>
      <trkpt lat="45.10815" lon="5.57275">
        <ele>992</ele>
      </trkpt>
      <trkpt lat="45.10801" lon="5.57296">
        <ele>992</ele>
      </trkpt>
      <trkpt lat="45.10788" lon="5.57328">
        <ele>991</ele>
      </trkpt>
      <trkpt lat="45.10782" lon="5.57352">
        <ele>991</ele>
      </trkpt>
      <trkpt lat="45.10778" lon="5.57391">
        <ele>992</ele>
      </trkpt>
      <trkpt lat="45.10771" lon="5.57427">
        <ele>993</ele>
      </trkpt>
      <trkpt lat="45.10763" lon="5.57449">
        <ele>993</ele>
      </trkpt>
      <trkpt lat="45.10745" lon="5.57481">
        <ele>995</ele>
      </trkpt>
      <trkpt lat="45.10726" lon="5.57509">
        <ele>997</ele>
      </trkpt>
      <trkpt lat="45.10716" lon="5.57522">
        <ele>998</ele>
      </trkpt>
      <trkpt lat="45.10705" lon="5.5754">
        <ele>999</ele>
      </trkpt>
      <trkpt lat="45.10688" lon="5.5756">
        <ele>1000</ele>
      </trkpt>
      <trkpt lat="45.10673" lon="5.57582">
        <ele>1003</ele>
      </trkpt>
      <trkpt lat="45.10663" lon="5.57605">
        <ele>1004</ele>
      </trkpt>
      <trkpt lat="45.10647" lon="5.57616">
        <ele>1004</ele>
      </trkpt>
      <trkpt lat="45.10627" lon="5.57624">
        <ele>1004</ele>
      </trkpt>
      <trkpt lat="45.10598" lon="5.57629">
        <ele>1005</ele>
      </trkpt>
      <trkpt lat="45.1057" lon="5.57618">
        <ele>1002</ele>
      </trkpt>
      <trkpt lat="45.10537" lon="5.57611">
        <ele>1001</ele>
      </trkpt>
      <trkpt lat="45.10498" lon="5.57621">
        <ele>999</ele>
      </trkpt>
      <trkpt lat="45.10471" lon="5.57614">
        <ele>999</ele>
      </trkpt>
      <trkpt lat="45.10446" lon="5.57614">
        <ele>1000</ele>
      </trkpt>
      <trkpt lat="45.10424" lon="5.57615">
        <ele>1000</ele>
      </trkpt>
      <trkpt lat="45.10391" lon="5.57612">
        <ele>1003</ele>
      </trkpt>
      <trkpt lat="45.10372" lon="5.57611">
        <ele>1004</ele>
      </trkpt>
      <trkpt lat="45.10345" lon="5.57606">
        <ele>1005</ele>
      </trkpt>
      <trkpt lat="45.10322" lon="5.57606">
        <ele>1008</ele>
      </trkpt>
      <trkpt lat="45.10301" lon="5.57614">
        <ele>1009</ele>
      </trkpt>
      <trkpt lat="45.10284" lon="5.57627">
        <ele>1009</ele>
      </trkpt>
      <trkpt lat="45.10269" lon="5.57637">
        <ele>1009</ele>
      </trkpt>
      <trkpt lat="45.10247" lon="5.57658">
        <ele>1010</ele>
      </trkpt>
      <trkpt lat="45.10222" lon="5.57675">
        <ele>1009</ele>
      </trkpt>
      <trkpt lat="45.10206" lon="5.57687">
        <ele>1009</ele>
      </trkpt>
      <trkpt lat="45.10179" lon="5.57709">
        <ele>1009</ele>
      </trkpt>
      <trkpt lat="45.10159" lon="5.57728">
        <ele>1011</ele>
      </trkpt>
      <trkpt lat="45.10143" lon="5.57745">
        <ele>1012</ele>
      </trkpt>
      <trkpt lat="45.10126" lon="5.57772">
        <ele>1014</ele>
      </trkpt>
      <trkpt lat="45.10108" lon="5.57797">
        <ele>1014</ele>
      </trkpt>
      <trkpt lat="45.10096" lon="5.57816">
        <ele>1015</ele>
      </trkpt>
      <trkpt lat="45.10078" lon="5.57841">
        <ele>1018</ele>
      </trkpt>
      <trkpt lat="45.10065" lon="5.57861">
        <ele>1019</ele>
      </trkpt>
      <trkpt lat="45.10044" lon="5.57879">
        <ele>1020</ele>
      </trkpt>
      <trkpt lat="45.10025" lon="5.57892">
        <ele>1022</ele>
      </trkpt>
      <trkpt lat="45.10009" lon="5.57906">
        <ele>1024</ele>
      </trkpt>
      <trkpt lat="45.09986" lon="5.57909">
        <ele>1025</ele>
      </trkpt>
      <trkpt lat="45.09977" lon="5.57926">
        <ele>1026</ele>
      </trkpt>
      <trkpt lat="45.09964" lon="5.57943">
        <ele>1026</ele>
      </trkpt>
      <trkpt lat="45.09944" lon="5.57946">
        <ele>1026</ele>
      </trkpt>
      <trkpt lat="45.0994" lon="5.57959">
        <ele>1026</ele>
      </trkpt>
      <trkpt lat="45.09951" lon="5.57997">
        <ele>1026</ele>
      </trkpt>
      <trkpt lat="45.09957" lon="5.58025">
        <ele>1028</ele>
      </trkpt>
      <trkpt lat="45.09961" lon="5.58038">
        <ele>1028</ele>
      </trkpt>
      <trkpt lat="45.09969" lon="5.58071">
        <ele>1029</ele>
      </trkpt>
      <trkpt lat="45.09981" lon="5.58094">
        <ele>1031</ele>
      </trkpt>
      <trkpt lat="45.09992" lon="5.58127">
        <ele>1032</ele>
      </trkpt>
      <trkpt lat="45.09996" lon="5.58158">
        <ele>1034</ele>
      </trkpt>
      <trkpt lat="45.10002" lon="5.58189">
        <ele>1033</ele>
      </trkpt>
      <trkpt lat="45.1001" lon="5.58226">
        <ele>1035</ele>
      </trkpt>
      <trkpt lat="45.10016" lon="5.58252">
        <ele>1040</ele>
      </trkpt>
      <trkpt lat="45.10023" lon="5.58283">
        <ele>1041</ele>
      </trkpt>
      <trkpt lat="45.10025" lon="5.58305">
        <ele>1043</ele>
      </trkpt>
      <trkpt lat="45.10029" lon="5.58338">
        <ele>1052</ele>
      </trkpt>
      <trkpt lat="45.10037" lon="5.5835">
        <ele>1052</ele>
      </trkpt>
      <trkpt lat="45.10054" lon="5.58376">
        <ele>1054</ele>
      </trkpt>
      <trkpt lat="45.1007" lon="5.58392">
        <ele>1055</ele>
      </trkpt>
      <trkpt lat="45.10085" lon="5.58419">
        <ele>1060</ele>
      </trkpt>
      <trkpt lat="45.10097" lon="5.58433">
        <ele>1065</ele>
      </trkpt>
      <trkpt lat="45.10126" lon="5.58455">
        <ele>1068</ele>
      </trkpt>
      <trkpt lat="45.10144" lon="5.58473">
        <ele>1071</ele>
      </trkpt>
      <trkpt lat="45.10144" lon="5.58493">
        <ele>1072</ele>
      </trkpt>
      <trkpt lat="45.10148" lon="5.58507">
        <ele>1080</ele>
      </trkpt>
      <trkpt lat="45.1017" lon="5.58521">
        <ele>1078</ele>
      </trkpt>
      <trkpt lat="45.10177" lon="5.58525">
        <ele>1079</ele>
      </trkpt>
      <trkpt lat="45.10184" lon="5.58555">
        <ele>1081</ele>
      </trkpt>
      <trkpt lat="45.10156" lon="5.58549">
        <ele>1083</ele>
      </trkpt>
      <trkpt lat="45.10139" lon="5.58547">
        <ele>1082</ele>
      </trkpt>
      <trkpt lat="45.10121" lon="5.58544">
        <ele>1082</ele>
      </trkpt>
      <trkpt lat="45.10109" lon="5.58545">
        <ele>1083</ele>
      </trkpt>
      <trkpt lat="45.1009" lon="5.58552">
        <ele>1084</ele>
      </trkpt>
      <trkpt lat="45.1008" lon="5.58575">
        <ele>1086</ele>
      </trkpt>
      <trkpt lat="45.10085" lon="5.58601">
        <ele>1091</ele>
      </trkpt>
      <trkpt lat="45.10093" lon="5.58616">
        <ele>1093</ele>
      </trkpt>
      <trkpt lat="45.10105" lon="5.58635">
        <ele>1094</ele>
      </trkpt>
      <trkpt lat="45.10103" lon="5.5865">
        <ele>1095</ele>
      </trkpt>
      <trkpt lat="45.10093" lon="5.58672">
        <ele>1101</ele>
      </trkpt>
      <trkpt lat="45.1009" lon="5.58678">
        <ele>1101</ele>
      </trkpt>
      <trkpt lat="45.10079" lon="5.58707">
        <ele>1104</ele>
      </trkpt>
      <trkpt lat="45.10075" lon="5.58725">
        <ele>1106</ele>
      </trkpt>
      <trkpt lat="45.10071" lon="5.58746">
        <ele>1107</ele>
      </trkpt>
      <trkpt lat="45.10059" lon="5.58762">
        <ele>1113</ele>
      </trkpt>
      <trkpt lat="45.10046" lon="5.58772">
        <ele>1115</ele>
      </trkpt>
      <trkpt lat="45.1003" lon="5.58788">
        <ele>1116</ele>
      </trkpt>
      <trkpt lat="45.10019" lon="5.58793">
        <ele>1117</ele>
      </trkpt>
      <trkpt lat="45.10004" lon="5.58809">
        <ele>1119</ele>
      </trkpt>
      <trkpt lat="45.09992" lon="5.58825">
        <ele>1121</ele>
      </trkpt>
      <trkpt lat="45.09986" lon="5.58857">
        <ele>1131</ele>
      </trkpt>
      <trkpt lat="45.09997" lon="5.58866">
        <ele>1132</ele>
      </trkpt>
      <trkpt lat="45.10014" lon="5.58875">
        <ele>1132</ele>
      </trkpt>
      <trkpt lat="45.10026" lon="5.58886">
        <ele>1133</ele>
      </trkpt>
      <trkpt lat="45.10045" lon="5.58909">
        <ele>1134</ele>
      </trkpt>
      <trkpt lat="45.1006" lon="5.58945">
        <ele>1154</ele>
      </trkpt>
      <trkpt lat="45.1008" lon="5.58963">
        <ele>1159</ele>
      </trkpt>
      <trkpt lat="45.101" lon="5.58966">
        <ele>1159</ele>
      </trkpt>
      <trkpt lat="45.10112" lon="5.58961">
        <ele>1158</ele>
      </trkpt>
      <trkpt lat="45.10126" lon="5.58953">
        <ele>1156</ele>
      </trkpt>
      <trkpt lat="45.10167" lon="5.5896">
        <ele>1158</ele>
      </trkpt>
      <trkpt lat="45.10188" lon="5.58968">
        <ele>1159</ele>
      </trkpt>
      <trkpt lat="45.10208" lon="5.58975">
        <ele>1160</ele>
      </trkpt>
      <trkpt lat="45.10228" lon="5.58979">
        <ele>1161</ele>
      </trkpt>
      <trkpt lat="45.10257" lon="5.58985">
        <ele>1163</ele>
      </trkpt>
      <trkpt lat="45.10278" lon="5.58992">
        <ele>1161</ele>
      </trkpt>
      <trkpt lat="45.10297" lon="5.58996">
        <ele>1160</ele>
      </trkpt>
      <trkpt lat="45.10313" lon="5.59002">
        <ele>1181</ele>
      </trkpt>
      <trkpt lat="45.10334" lon="5.59003">
        <ele>1173</ele>
      </trkpt>
      <trkpt lat="45.10352" lon="5.59">
        <ele>1161</ele>
      </trkpt>
      <trkpt lat="45.1037" lon="5.58999">
        <ele>1157</ele>
      </trkpt>
      <trkpt lat="45.10391" lon="5.59004">
        <ele>1177</ele>
      </trkpt>
      <trkpt lat="45.10409" lon="5.59016">
        <ele>1175</ele>
      </trkpt>
      <trkpt lat="45.10429" lon="5.5903">
        <ele>1174</ele>
      </trkpt>
      <trkpt lat="45.10449" lon="5.59043">
        <ele>1177</ele>
      </trkpt>
      <trkpt lat="45.10462" lon="5.59054">
        <ele>1178</ele>
      </trkpt>
      <trkpt lat="45.10482" lon="5.59073">
        <ele>1181</ele>
      </trkpt>
      <trkpt lat="45.10503" lon="5.59081">
        <ele>1183</ele>
      </trkpt>
      <trkpt lat="45.10519" lon="5.59087">
        <ele>1194</ele>
      </trkpt>
      <trkpt lat="45.10537" lon="5.59099">
        <ele>1197</ele>
      </trkpt>
      <trkpt lat="45.10549" lon="5.59108">
        <ele>1198</ele>
      </trkpt>
      <trkpt lat="45.10565" lon="5.59118">
        <ele>1200</ele>
      </trkpt>
      <trkpt lat="45.10575" lon="5.59124">
        <ele>1201</ele>
      </trkpt>
      <trkpt lat="45.1059" lon="5.59134">
        <ele>1198</ele>
      </trkpt>
      <trkpt lat="45.10603" lon="5.59143">
        <ele>1200</ele>
      </trkpt>
      <trkpt lat="45.10629" lon="5.59159">
        <ele>1199</ele>
      </trkpt>
      <trkpt lat="45.1065" lon="5.59173">
        <ele>1216</ele>
      </trkpt>
      <trkpt lat="45.10672" lon="5.59193">
        <ele>1215</ele>
      </trkpt>
      <trkpt lat="45.10691" lon="5.59211">
        <ele>1220</ele>
      </trkpt>
      <trkpt lat="45.10704" lon="5.59221">
        <ele>1221</ele>
      </trkpt>
      <trkpt lat="45.10721" lon="5.59228">
        <ele>1222</ele>
      </trkpt>
      <trkpt lat="45.10744" lon="5.59236">
        <ele>1225</ele>
      </trkpt>
      <trkpt lat="45.10753" lon="5.5924">
        <ele>1224</ele>
      </trkpt>
      <trkpt lat="45.10776" lon="5.5925">
        <ele>1237</ele>
      </trkpt>
      <trkpt lat="45.10801" lon="5.59266">
        <ele>1238</ele>
      </trkpt>
      <trkpt lat="45.10825" lon="5.59282">
        <ele>1239</ele>
      </trkpt>
      <trkpt lat="45.10838" lon="5.59292">
        <ele>1237</ele>
      </trkpt>
      <trkpt lat="45.10851" lon="5.59303">
        <ele>1240</ele>
      </trkpt>
      <trkpt lat="45.10866" lon="5.59313">
        <ele>1240</ele>
      </trkpt>
      <trkpt lat="45.10892" lon="5.59317">
        <ele>1241</ele>
      </trkpt>
      <trkpt lat="45.10906" lon="5.59319">
        <ele>1242</ele>
      </trkpt>
      <trkpt lat="45.10934" lon="5.59324">
        <ele>1242</ele>
      </trkpt>
      <trkpt lat="45.1095" lon="5.59326">
        <ele>1241</ele>
      </trkpt>
      <trkpt lat="45.1097" lon="5.5933">
        <ele>1243</ele>
      </trkpt>
      <trkpt lat="45.1099" lon="5.59331">
        <ele>1249</ele>
      </trkpt>
      <trkpt lat="45.11004" lon="5.59332">
        <ele>1253</ele>
      </trkpt>
      <trkpt lat="45.11029" lon="5.59333">
        <ele>1247</ele>
      </trkpt>
      <trkpt lat="45.1105" lon="5.59333">
        <ele>1248</ele>
      </trkpt>
      <trkpt lat="45.11072" lon="5.59333">
        <ele>1254</ele>
      </trkpt>
      <trkpt lat="45.11094" lon="5.59337">
        <ele>1267</ele>
      </trkpt>
      <trkpt lat="45.11107" lon="5.59341">
        <ele>1271</ele>
      </trkpt>
      <trkpt lat="45.1112" lon="5.59345">
        <ele>1273</ele>
      </trkpt>
      <trkpt lat="45.1114" lon="5.5935">
        <ele>1273</ele>
      </trkpt>
      <trkpt lat="45.11155" lon="5.59357">
        <ele>1273</ele>
      </trkpt>
      <trkpt lat="45.11168" lon="5.59364">
        <ele>1271</ele>
      </trkpt>
      <trkpt lat="45.11179" lon="5.59369">
        <ele>1272</ele>
      </trkpt>
      <trkpt lat="45.11198" lon="5.59378">
        <ele>1274</ele>
      </trkpt>
      <trkpt lat="45.11214" lon="5.59383">
        <ele>1273</ele>
      </trkpt>
      <trkpt lat="45.11231" lon="5.59395">
        <ele>1275</ele>
      </trkpt>
      <trkpt lat="45.11249" lon="5.59411">
        <ele>1278</ele>
      </trkpt>
      <trkpt lat="45.11269" lon="5.59434">
        <ele>1274</ele>
      </trkpt>
      <trkpt lat="45.11273" lon="5.5946">
        <ele>1274</ele>
      </trkpt>
      <trkpt lat="45.11271" lon="5.59482">
        <ele>1278</ele>
      </trkpt>
      <trkpt lat="45.11264" lon="5.59516">
        <ele>1285</ele>
      </trkpt>
      <trkpt lat="45.11258" lon="5.59534">
        <ele>1282</ele>
      </trkpt>
      <trkpt lat="45.11244" lon="5.5956">
        <ele>1302</ele>
      </trkpt>
      <trkpt lat="45.11227" lon="5.5958">
        <ele>1303</ele>
      </trkpt>
      <trkpt lat="45.11212" lon="5.59597">
        <ele>1303</ele>
      </trkpt>
      <trkpt lat="45.1119" lon="5.59617">
        <ele>1306</ele>
      </trkpt>
      <trkpt lat="45.11166" lon="5.59632">
        <ele>1321</ele>
      </trkpt>
      <trkpt lat="45.11151" lon="5.59644">
        <ele>1320</ele>
      </trkpt>
      <trkpt lat="45.11134" lon="5.59654">
        <ele>1322</ele>
      </trkpt>
      <trkpt lat="45.11121" lon="5.5969">
        <ele>1325</ele>
      </trkpt>
      <trkpt lat="45.11118" lon="5.59721">
        <ele>1327</ele>
      </trkpt>
      <trkpt lat="45.11123" lon="5.59751">
        <ele>1330</ele>
      </trkpt>
      <trkpt lat="45.11128" lon="5.59769">
        <ele>1329</ele>
      </trkpt>
      <trkpt lat="45.11133" lon="5.5979">
        <ele>1329</ele>
      </trkpt>
      <trkpt lat="45.11137" lon="5.5981">
        <ele>1328</ele>
      </trkpt>
      <trkpt lat="45.11136" lon="5.59832">
        <ele>1329</ele>
      </trkpt>
      <trkpt lat="45.1113" lon="5.5986">
        <ele>1332</ele>
      </trkpt>
      <trkpt lat="45.1113" lon="5.5989">
        <ele>1332</ele>
      </trkpt>
      <trkpt lat="45.11125" lon="5.59906">
        <ele>1333</ele>
      </trkpt>
      <trkpt lat="45.11122" lon="5.5988">
        <ele>1334</ele>
      </trkpt>
      <trkpt lat="45.11119" lon="5.59857">
        <ele>1335</ele>
      </trkpt>
      <trkpt lat="45.11118" lon="5.59836">
        <ele>1336</ele>
      </trkpt>
      <trkpt lat="45.11116" lon="5.59799">
        <ele>1333</ele>
      </trkpt>
      <trkpt lat="45.11099" lon="5.59788">
        <ele>1335</ele>
      </trkpt>
      <trkpt lat="45.11084" lon="5.59763">
        <ele>1338</ele>
      </trkpt>
      <trkpt lat="45.11068" lon="5.59729">
        <ele>1347</ele>
      </trkpt>
      <trkpt lat="45.11045" lon="5.5971">
        <ele>1349</ele>
      </trkpt>
      <trkpt lat="45.11021" lon="5.59694">
        <ele>1350</ele>
      </trkpt>
      <trkpt lat="45.10998" lon="5.59687">
        <ele>1359</ele>
      </trkpt>
      <trkpt lat="45.10968" lon="5.59683">
        <ele>1362</ele>
      </trkpt>
      <trkpt lat="45.10948" lon="5.59684">
        <ele>1364</ele>
      </trkpt>
      <trkpt lat="45.1093" lon="5.59682">
        <ele>1363</ele>
      </trkpt>
      <trkpt lat="45.10899" lon="5.59689">
        <ele>1373</ele>
      </trkpt>
      <trkpt lat="45.10881" lon="5.59687">
        <ele>1375</ele>
      </trkpt>
      <trkpt lat="45.10862" lon="5.59689">
        <ele>1377</ele>
      </trkpt>
      <trkpt lat="45.10843" lon="5.59686">
        <ele>1376</ele>
      </trkpt>
      <trkpt lat="45.10826" lon="5.59682">
        <ele>1380</ele>
      </trkpt>
      <trkpt lat="45.10804" lon="5.59682">
        <ele>1383</ele>
      </trkpt>
      <trkpt lat="45.10789" lon="5.5968">
        <ele>1384</ele>
      </trkpt>
      <trkpt lat="45.10777" lon="5.5968">
        <ele>1384</ele>
      </trkpt>
      <trkpt lat="45.10769" lon="5.59679">
        <ele>1382</ele>
      </trkpt>
      <trkpt lat="45.10752" lon="5.59682">
        <ele>1381</ele>
      </trkpt>
      <trkpt lat="45.10728" lon="5.59685">
        <ele>1390</ele>
      </trkpt>
      <trkpt lat="45.107" lon="5.59687">
        <ele>1393</ele>
      </trkpt>
      <trkpt lat="45.10683" lon="5.59691">
        <ele>1394</ele>
      </trkpt>
      <trkpt lat="45.10671" lon="5.5969">
        <ele>1393</ele>
      </trkpt>
      <trkpt lat="45.10658" lon="5.5969">
        <ele>1398</ele>
      </trkpt>
      <trkpt lat="45.10628" lon="5.59687">
        <ele>1402</ele>
      </trkpt>
      <trkpt lat="45.10614" lon="5.59687">
        <ele>1402</ele>
      </trkpt>
      <trkpt lat="45.10601" lon="5.59685">
        <ele>1401</ele>
      </trkpt>
      <trkpt lat="45.10577" lon="5.59682">
        <ele>1403</ele>
      </trkpt>
      <trkpt lat="45.10559" lon="5.5968">
        <ele>1406</ele>
      </trkpt>
      <trkpt lat="45.10533" lon="5.59674">
        <ele>1408</ele>
      </trkpt>
      <trkpt lat="45.10519" lon="5.59672">
        <ele>1406</ele>
      </trkpt>
      <trkpt lat="45.10503" lon="5.59671">
        <ele>1401</ele>
      </trkpt>
      <trkpt lat="45.10485" lon="5.59671">
        <ele>1408</ele>
      </trkpt>
      <trkpt lat="45.10467" lon="5.59673">
        <ele>1413</ele>
      </trkpt>
      <trkpt lat="45.10444" lon="5.59675">
        <ele>1414</ele>
      </trkpt>
      <trkpt lat="45.10422" lon="5.59676">
        <ele>1411</ele>
      </trkpt>
      <trkpt lat="45.10402" lon="5.59679">
        <ele>1418</ele>
      </trkpt>
      <trkpt lat="45.10391" lon="5.59677">
        <ele>1421</ele>
      </trkpt>
      <trkpt lat="45.10374" lon="5.59677">
        <ele>1424</ele>
      </trkpt>
      <trkpt lat="45.10356" lon="5.59676">
        <ele>1424</ele>
      </trkpt>
      <trkpt lat="45.10337" lon="5.59671">
        <ele>1421</ele>
      </trkpt>
      <trkpt lat="45.10313" lon="5.59664">
        <ele>1415</ele>
      </trkpt>
      <trkpt lat="45.10292" lon="5.5966">
        <ele>1415</ele>
      </trkpt>
      <trkpt lat="45.10278" lon="5.5966">
        <ele>1417</ele>
      </trkpt>
      <trkpt lat="45.10258" lon="5.59659">
        <ele>1423</ele>
      </trkpt>
      <trkpt lat="45.10244" lon="5.59656">
        <ele>1427</ele>
      </trkpt>
      <trkpt lat="45.10233" lon="5.59653">
        <ele>1425</ele>
      </trkpt>
      <trkpt lat="45.10219" lon="5.59646">
        <ele>1424</ele>
      </trkpt>
      <trkpt lat="45.10204" lon="5.59631">
        <ele>1423</ele>
      </trkpt>
      <trkpt lat="45.10184" lon="5.59616">
        <ele>1422</ele>
      </trkpt>
      <trkpt lat="45.10169" lon="5.59611">
        <ele>1422</ele>
      </trkpt>
      <trkpt lat="45.10151" lon="5.59614">
        <ele>1425</ele>
      </trkpt>
      <trkpt lat="45.10135" lon="5.59621">
        <ele>1426</ele>
      </trkpt>
      <trkpt lat="45.10122" lon="5.59654">
        <ele>1429</ele>
      </trkpt>
      <trkpt lat="45.10116" lon="5.59673">
        <ele>1436</ele>
      </trkpt>
      <trkpt lat="45.10111" lon="5.59691">
        <ele>1437</ele>
      </trkpt>
      <trkpt lat="45.10133" lon="5.59714">
        <ele>1438</ele>
      </trkpt>
      <trkpt lat="45.10152" lon="5.59718">
        <ele>1439</ele>
      </trkpt>
      <trkpt lat="45.1017" lon="5.59725">
        <ele>1440</ele>
      </trkpt>
      <trkpt lat="45.10184" lon="5.59732">
        <ele>1441</ele>
      </trkpt>
      <trkpt lat="45.10202" lon="5.59747">
        <ele>1441</ele>
      </trkpt>
      <trkpt lat="45.10209" lon="5.59765">
        <ele>1450</ele>
      </trkpt>
      <trkpt lat="45.10196" lon="5.59762">
        <ele>1450</ele>
      </trkpt>
      <trkpt lat="45.10174" lon="5.59769">
        <ele>1449</ele>
      </trkpt>
      <trkpt lat="45.10159" lon="5.59777">
        <ele>1449</ele>
      </trkpt>
      <trkpt lat="45.1015" lon="5.59779">
        <ele>1449</ele>
      </trkpt>
      <trkpt lat="45.10132" lon="5.59815">
        <ele>1452</ele>
      </trkpt>
      <trkpt lat="45.10141" lon="5.59826">
        <ele>1453</ele>
      </trkpt>
      <trkpt lat="45.10178" lon="5.59819">
        <ele>1455</ele>
      </trkpt>
      <trkpt lat="45.10195" lon="5.5982">
        <ele>1455</ele>
      </trkpt>
      <trkpt lat="45.10221" lon="5.59826">
        <ele>1457</ele>
      </trkpt>
      <trkpt lat="45.10237" lon="5.59828">
        <ele>1459</ele>
      </trkpt>
      <trkpt lat="45.10261" lon="5.59831">
        <ele>1461</ele>
      </trkpt>
      <trkpt lat="45.10283" lon="5.59831">
        <ele>1459</ele>
      </trkpt>
      <trkpt lat="45.10302" lon="5.59839">
        <ele>1466</ele>
      </trkpt>
      <trkpt lat="45.10327" lon="5.59846">
        <ele>1466</ele>
      </trkpt>
      <trkpt lat="45.10347" lon="5.59836">
        <ele>1467</ele>
      </trkpt>
      <trkpt lat="45.10361" lon="5.59831">
        <ele>1461</ele>
      </trkpt>
      <trkpt lat="45.10388" lon="5.5983">
        <ele>1461</ele>
      </trkpt>
      <trkpt lat="45.10412" lon="5.59831">
        <ele>1467</ele>
      </trkpt>
      <trkpt lat="45.10436" lon="5.59828">
        <ele>1462</ele>
      </trkpt>
      <trkpt lat="45.10458" lon="5.59827">
        <ele>1460</ele>
      </trkpt>
      <trkpt lat="45.10476" lon="5.59829">
        <ele>1462</ele>
      </trkpt>
      <trkpt lat="45.10503" lon="5.59834">
        <ele>1470</ele>
      </trkpt>
      <trkpt lat="45.10524" lon="5.59844">
        <ele>1469</ele>
      </trkpt>
      <trkpt lat="45.10546" lon="5.59858">
        <ele>1469</ele>
      </trkpt>
      <trkpt lat="45.10559" lon="5.5987">
        <ele>1469</ele>
      </trkpt>
      <trkpt lat="45.10564" lon="5.5988">
        <ele>1470</ele>
      </trkpt>
      <trkpt lat="45.10587" lon="5.59892">
        <ele>1467</ele>
      </trkpt>
      <trkpt lat="45.10597" lon="5.59894">
        <ele>1467</ele>
      </trkpt>
      <trkpt lat="45.10604" lon="5.59889">
        <ele>1466</ele>
      </trkpt>
      <trkpt lat="45.10621" lon="5.59891">
        <ele>1465</ele>
      </trkpt>
      <trkpt lat="45.10638" lon="5.59898">
        <ele>1465</ele>
      </trkpt>
      <trkpt lat="45.10674" lon="5.59906">
        <ele>1462</ele>
      </trkpt>
      <trkpt lat="45.10688" lon="5.5991">
        <ele>1459</ele>
      </trkpt>
      <trkpt lat="45.10704" lon="5.59916">
        <ele>1457</ele>
      </trkpt>
      <trkpt lat="45.10719" lon="5.59924">
        <ele>1457</ele>
      </trkpt>
      <trkpt lat="45.10748" lon="5.59937">
        <ele>1455</ele>
      </trkpt>
      <trkpt lat="45.10766" lon="5.59948">
        <ele>1443</ele>
      </trkpt>
      <trkpt lat="45.10787" lon="5.59955">
        <ele>1440</ele>
      </trkpt>
      <trkpt lat="45.10793" lon="5.59943">
        <ele>1439</ele>
      </trkpt>
      <trkpt lat="45.10802" lon="5.59922">
        <ele>1438</ele>
      </trkpt>
      <trkpt lat="45.10812" lon="5.59871">
        <ele>1433</ele>
      </trkpt>
      <trkpt lat="45.10821" lon="5.59826">
        <ele>1420</ele>
      </trkpt>
      <trkpt lat="45.10823" lon="5.59805">
        <ele>1418</ele>
      </trkpt>
      <trkpt lat="45.10842" lon="5.59803">
        <ele>1407</ele>
      </trkpt>
      <trkpt lat="45.10858" lon="5.59806">
        <ele>1405</ele>
      </trkpt>
      <trkpt lat="45.10874" lon="5.59803">
        <ele>1403</ele>
      </trkpt>
      <trkpt lat="45.10895" lon="5.59796">
        <ele>1400</ele>
      </trkpt>
      <trkpt lat="45.10906" lon="5.59813">
        <ele>1400</ele>
      </trkpt>
      <trkpt lat="45.10932" lon="5.59825">
        <ele>1391</ele>
      </trkpt>
      <trkpt lat="45.10943" lon="5.59827">
        <ele>1388</ele>
      </trkpt>
      <trkpt lat="45.10958" lon="5.5986">
        <ele>1389</ele>
      </trkpt>
      <trkpt lat="45.10975" lon="5.5987">
        <ele>1386</ele>
      </trkpt>
      <trkpt lat="45.10989" lon="5.5989">
        <ele>1384</ele>
      </trkpt>
      <trkpt lat="45.10999" lon="5.59901">
        <ele>1382</ele>
      </trkpt>
      <trkpt lat="45.10999" lon="5.59891">
        <ele>1383</ele>
      </trkpt>
      <trkpt lat="45.11021" lon="5.59899">
        <ele>1367</ele>
      </trkpt>
      <trkpt lat="45.11039" lon="5.59906">
        <ele>1363</ele>
      </trkpt>
      <trkpt lat="45.11046" lon="5.59904">
        <ele>1362</ele>
      </trkpt>
      <trkpt lat="45.11018" lon="5.59885">
        <ele>1367</ele>
      </trkpt>
      <trkpt lat="45.11038" lon="5.599">
        <ele>1364</ele>
      </trkpt>
      <trkpt lat="45.11047" lon="5.59909">
        <ele>1362</ele>
      </trkpt>
      <trkpt lat="45.11071" lon="5.59934">
        <ele>1351</ele>
      </trkpt>
      <trkpt lat="45.11095" lon="5.5994">
        <ele>1332</ele>
      </trkpt>
      <trkpt lat="45.11115" lon="5.59945">
        <ele>1327</ele>
      </trkpt>
      <trkpt lat="45.11135" lon="5.59946">
        <ele>1323</ele>
      </trkpt>
      <trkpt lat="45.11166" lon="5.59904">
        <ele>1322</ele>
      </trkpt>
      <trkpt lat="45.11175" lon="5.59886">
        <ele>1306</ele>
      </trkpt>
      <trkpt lat="45.1119" lon="5.59868">
        <ele>1304</ele>
      </trkpt>
      <trkpt lat="45.11207" lon="5.59852">
        <ele>1300</ele>
      </trkpt>
      <trkpt lat="45.11211" lon="5.59854">
        <ele>1299</ele>
      </trkpt>
      <trkpt lat="45.11226" lon="5.59858">
        <ele>1296</ele>
      </trkpt>
      <trkpt lat="45.11262" lon="5.59911">
        <ele>1281</ele>
      </trkpt>
      <trkpt lat="45.11279" lon="5.59934">
        <ele>1273</ele>
      </trkpt>
      <trkpt lat="45.11316" lon="5.59936">
        <ele>1268</ele>
      </trkpt>
      <trkpt lat="45.11334" lon="5.59933">
        <ele>1260</ele>
      </trkpt>
      <trkpt lat="45.11348" lon="5.5993">
        <ele>1259</ele>
      </trkpt>
      <trkpt lat="45.11367" lon="5.59922">
        <ele>1256</ele>
      </trkpt>
      <trkpt lat="45.11383" lon="5.59921">
        <ele>1255</ele>
      </trkpt>
      <trkpt lat="45.11401" lon="5.59918">
        <ele>1257</ele>
      </trkpt>
      <trkpt lat="45.11416" lon="5.59914">
        <ele>1261</ele>
      </trkpt>
      <trkpt lat="45.11449" lon="5.59918">
        <ele>1247</ele>
      </trkpt>
      <trkpt lat="45.11479" lon="5.59907">
        <ele>1255</ele>
      </trkpt>
      <trkpt lat="45.11496" lon="5.59897">
        <ele>1255</ele>
      </trkpt>
      <trkpt lat="45.11513" lon="5.59886">
        <ele>1256</ele>
      </trkpt>
      <trkpt lat="45.11537" lon="5.59882">
        <ele>1257</ele>
      </trkpt>
      <trkpt lat="45.11554" lon="5.5988">
        <ele>1257</ele>
      </trkpt>
      <trkpt lat="45.11572" lon="5.59874">
        <ele>1258</ele>
      </trkpt>
      <trkpt lat="45.11586" lon="5.59869">
        <ele>1263</ele>
      </trkpt>
      <trkpt lat="45.11595" lon="5.59864">
        <ele>1264</ele>
      </trkpt>
      <trkpt lat="45.11624" lon="5.59849">
        <ele>1266</ele>
      </trkpt>
      <trkpt lat="45.1164" lon="5.59835">
        <ele>1269</ele>
      </trkpt>
      <trkpt lat="45.11657" lon="5.59836">
        <ele>1273</ele>
      </trkpt>
      <trkpt lat="45.11679" lon="5.5983">
        <ele>1280</ele>
      </trkpt>
      <trkpt lat="45.1169" lon="5.59827">
        <ele>1282</ele>
      </trkpt>
      <trkpt lat="45.11701" lon="5.59818">
        <ele>1283</ele>
      </trkpt>
      <trkpt lat="45.11711" lon="5.59812">
        <ele>1284</ele>
      </trkpt>
      <trkpt lat="45.11749" lon="5.59825">
        <ele>1286</ele>
      </trkpt>
      <trkpt lat="45.11766" lon="5.5983">
        <ele>1288</ele>
      </trkpt>
      <trkpt lat="45.11782" lon="5.59825">
        <ele>1289</ele>
      </trkpt>
      <trkpt lat="45.11806" lon="5.59807">
        <ele>1290</ele>
      </trkpt>
      <trkpt lat="45.1182" lon="5.59795">
        <ele>1290</ele>
      </trkpt>
      <trkpt lat="45.11838" lon="5.59779">
        <ele>1287</ele>
      </trkpt>
      <trkpt lat="45.11846" lon="5.59768">
        <ele>1288</ele>
      </trkpt>
      <trkpt lat="45.11845" lon="5.59757">
        <ele>1289</ele>
      </trkpt>
      <trkpt lat="45.11872" lon="5.59765">
        <ele>1285</ele>
      </trkpt>
      <trkpt lat="45.11906" lon="5.59798">
        <ele>1283</ele>
      </trkpt>
      <trkpt lat="45.11924" lon="5.59805">
        <ele>1274</ele>
      </trkpt>
      <trkpt lat="45.11926" lon="5.5979">
        <ele>1273</ele>
      </trkpt>
      <trkpt lat="45.1194" lon="5.59795">
        <ele>1272</ele>
      </trkpt>
      <trkpt lat="45.11941" lon="5.59773">
        <ele>1271</ele>
      </trkpt>
      <trkpt lat="45.11971" lon="5.59744">
        <ele>1258</ele>
      </trkpt>
      <trkpt lat="45.11974" lon="5.59731">
        <ele>1257</ele>
      </trkpt>
      <trkpt lat="45.12003" lon="5.59736">
        <ele>1246</ele>
      </trkpt>
      <trkpt lat="45.12015" lon="5.59715">
        <ele>1237</ele>
      </trkpt>
      <trkpt lat="45.12021" lon="5.59695">
        <ele>1233</ele>
      </trkpt>
      <trkpt lat="45.12008" lon="5.597">
        <ele>1235</ele>
      </trkpt>
      <trkpt lat="45.1198" lon="5.59698">
        <ele>1252</ele>
      </trkpt>
      <trkpt lat="45.11952" lon="5.59701">
        <ele>1257</ele>
      </trkpt>
      <trkpt lat="45.11973" lon="5.59689">
        <ele>1252</ele>
      </trkpt>
      <trkpt lat="45.12003" lon="5.59691">
        <ele>1234</ele>
      </trkpt>
      <trkpt lat="45.12017" lon="5.59671">
        <ele>1233</ele>
      </trkpt>
      <trkpt lat="45.12025" lon="5.59659">
        <ele>1220</ele>
      </trkpt>
      <trkpt lat="45.12032" lon="5.59631">
        <ele>1214</ele>
      </trkpt>
      <trkpt lat="45.12041" lon="5.59604">
        <ele>1209</ele>
      </trkpt>
      <trkpt lat="45.12047" lon="5.59582">
        <ele>1194</ele>
      </trkpt>
      <trkpt lat="45.12054" lon="5.59556">
        <ele>1192</ele>
      </trkpt>
      <trkpt lat="45.12057" lon="5.59545">
        <ele>1190</ele>
      </trkpt>
      <trkpt lat="45.12082" lon="5.59492">
        <ele>1168</ele>
      </trkpt>
      <trkpt lat="45.12104" lon="5.59486">
        <ele>1152</ele>
      </trkpt>
      <trkpt lat="45.12125" lon="5.59525">
        <ele>1161</ele>
      </trkpt>
      <trkpt lat="45.12148" lon="5.59534">
        <ele>1157</ele>
      </trkpt>
      <trkpt lat="45.12158" lon="5.59534">
        <ele>1156</ele>
      </trkpt>
      <trkpt lat="45.12165" lon="5.59541">
        <ele>1157</ele>
      </trkpt>
      <trkpt lat="45.12184" lon="5.59544">
        <ele>1131</ele>
      </trkpt>
      <trkpt lat="45.12189" lon="5.59552">
        <ele>1132</ele>
      </trkpt>
      <trkpt lat="45.12193" lon="5.59534">
        <ele>1128</ele>
      </trkpt>
      <trkpt lat="45.12186" lon="5.59506">
        <ele>1129</ele>
      </trkpt>
      <trkpt lat="45.1217" lon="5.59479">
        <ele>1120</ele>
      </trkpt>
      <trkpt lat="45.12154" lon="5.5946">
        <ele>1138</ele>
      </trkpt>
      <trkpt lat="45.12138" lon="5.59442">
        <ele>1138</ele>
      </trkpt>
      <trkpt lat="45.12129" lon="5.59427">
        <ele>1138</ele>
      </trkpt>
      <trkpt lat="45.12151" lon="5.59436">
        <ele>1134</ele>
      </trkpt>
      <trkpt lat="45.12172" lon="5.59405">
        <ele>1106</ele>
      </trkpt>
      <trkpt lat="45.12192" lon="5.59431">
        <ele>1109</ele>
      </trkpt>
      <trkpt lat="45.12202" lon="5.5945">
        <ele>1107</ele>
      </trkpt>
      <trkpt lat="45.12211" lon="5.59463">
        <ele>1106</ele>
      </trkpt>
      <trkpt lat="45.12227" lon="5.59467">
        <ele>1103</ele>
      </trkpt>
      <trkpt lat="45.12271" lon="5.59514">
        <ele>1087</ele>
      </trkpt>
      <trkpt lat="45.12299" lon="5.59538">
        <ele>1082</ele>
      </trkpt>
      <trkpt lat="45.12336" lon="5.59609">
        <ele>1075</ele>
      </trkpt>
      <trkpt lat="45.12338" lon="5.59629">
        <ele>1079</ele>
      </trkpt>
      <trkpt lat="45.12345" lon="5.59658">
        <ele>1086</ele>
      </trkpt>
      <trkpt lat="45.12353" lon="5.5966">
        <ele>1084</ele>
      </trkpt>
      <trkpt lat="45.12368" lon="5.59651">
        <ele>1078</ele>
      </trkpt>
      <trkpt lat="45.12391" lon="5.59659">
        <ele>1073</ele>
      </trkpt>
      <trkpt lat="45.12417" lon="5.59664">
        <ele>1067</ele>
      </trkpt>
      <trkpt lat="45.1244" lon="5.59669">
        <ele>1069</ele>
      </trkpt>
      <trkpt lat="45.12456" lon="5.59681">
        <ele>1068</ele>
      </trkpt>
      <trkpt lat="45.12434" lon="5.59667">
        <ele>1069</ele>
      </trkpt>
      <trkpt lat="45.12415" lon="5.5967">
        <ele>1072</ele>
      </trkpt>
      <trkpt lat="45.12396" lon="5.59686">
        <ele>1087</ele>
      </trkpt>
      <trkpt lat="45.12402" lon="5.59715">
        <ele>1092</ele>
      </trkpt>
      <trkpt lat="45.12411" lon="5.59737">
        <ele>1093</ele>
      </trkpt>
      <trkpt lat="45.12423" lon="5.59773">
        <ele>1091</ele>
      </trkpt>
      <trkpt lat="45.1244" lon="5.59799">
        <ele>1092</ele>
      </trkpt>
      <trkpt lat="45.12449" lon="5.59815">
        <ele>1093</ele>
      </trkpt>
      <trkpt lat="45.12456" lon="5.59837">
        <ele>1104</ele>
      </trkpt>
      <trkpt lat="45.12466" lon="5.59862">
        <ele>1105</ele>
      </trkpt>
      <trkpt lat="45.12493" lon="5.59902">
        <ele>1104</ele>
      </trkpt>
      <trkpt lat="45.12517" lon="5.59937">
        <ele>1090</ele>
      </trkpt>
      <trkpt lat="45.12536" lon="5.59973">
        <ele>1086</ele>
      </trkpt>
      <trkpt lat="45.12544" lon="5.60003">
        <ele>1088</ele>
      </trkpt>
      <trkpt lat="45.12544" lon="5.60044">
        <ele>1088</ele>
      </trkpt>
      <trkpt lat="45.1253" lon="5.60079">
        <ele>1094</ele>
      </trkpt>
      <trkpt lat="45.12516" lon="5.60125">
        <ele>1093</ele>
      </trkpt>
      <trkpt lat="45.12507" lon="5.60136">
        <ele>1094</ele>
      </trkpt>
      <trkpt lat="45.12506" lon="5.60171">
        <ele>1096</ele>
      </trkpt>
      <trkpt lat="45.12534" lon="5.6014">
        <ele>1089</ele>
      </trkpt>
      <trkpt lat="45.12544" lon="5.60123">
        <ele>1088</ele>
      </trkpt>
      <trkpt lat="45.12561" lon="5.60086">
        <ele>1081</ele>
      </trkpt>
      <trkpt lat="45.12578" lon="5.60058">
        <ele>1079</ele>
      </trkpt>
      <trkpt lat="45.12591" lon="5.60047">
        <ele>1061</ele>
      </trkpt>
      <trkpt lat="45.12604" lon="5.60031">
        <ele>1060</ele>
      </trkpt>
      <trkpt lat="45.12614" lon="5.60017">
        <ele>1058</ele>
      </trkpt>
      <trkpt lat="45.12628" lon="5.59993">
        <ele>1050</ele>
      </trkpt>
      <trkpt lat="45.12633" lon="5.59965">
        <ele>1049</ele>
      </trkpt>
      <trkpt lat="45.12624" lon="5.59943">
        <ele>1050</ele>
      </trkpt>
      <trkpt lat="45.12624" lon="5.5992">
        <ele>1049</ele>
      </trkpt>
      <trkpt lat="45.1263" lon="5.599">
        <ele>1045</ele>
      </trkpt>
      <trkpt lat="45.12632" lon="5.59861">
        <ele>1044</ele>
      </trkpt>
      <trkpt lat="45.12633" lon="5.59826">
        <ele>1040</ele>
      </trkpt>
      <trkpt lat="45.12628" lon="5.5979">
        <ele>1040</ele>
      </trkpt>
      <trkpt lat="45.12626" lon="5.59769">
        <ele>1039</ele>
      </trkpt>
      <trkpt lat="45.1263" lon="5.5973">
        <ele>1036</ele>
      </trkpt>
      <trkpt lat="45.12635" lon="5.59705">
        <ele>1035</ele>
      </trkpt>
      <trkpt lat="45.12641" lon="5.59651">
        <ele>1033</ele>
      </trkpt>
      <trkpt lat="45.12644" lon="5.59624">
        <ele>1032</ele>
      </trkpt>
      <trkpt lat="45.12644" lon="5.59586">
        <ele>1031</ele>
      </trkpt>
      <trkpt lat="45.12648" lon="5.59558">
        <ele>1030</ele>
      </trkpt>
      <trkpt lat="45.12666" lon="5.59518">
        <ele>1029</ele>
      </trkpt>
      <trkpt lat="45.12681" lon="5.59485">
        <ele>1026</ele>
      </trkpt>
      <trkpt lat="45.12685" lon="5.59462">
        <ele>1026</ele>
      </trkpt>
      <trkpt lat="45.12698" lon="5.5942">
        <ele>1026</ele>
      </trkpt>
      <trkpt lat="45.12713" lon="5.59379">
        <ele>1025</ele>
      </trkpt>
      <trkpt lat="45.12716" lon="5.59356">
        <ele>1025</ele>
      </trkpt>
      <trkpt lat="45.12724" lon="5.59329">
        <ele>1025</ele>
      </trkpt>
      <trkpt lat="45.12731" lon="5.59311">
        <ele>1025</ele>
      </trkpt>
      <trkpt lat="45.12743" lon="5.5927">
        <ele>1024</ele>
      </trkpt>
      <trkpt lat="45.12752" lon="5.59234">
        <ele>1022</ele>
      </trkpt>
      <trkpt lat="45.12757" lon="5.59214">
        <ele>1022</ele>
      </trkpt>
      <trkpt lat="45.12763" lon="5.59195">
        <ele>1021</ele>
      </trkpt>
      <trkpt lat="45.12772" lon="5.59156">
        <ele>1021</ele>
      </trkpt>
      <trkpt lat="45.12777" lon="5.59134">
        <ele>1020</ele>
      </trkpt>
      <trkpt lat="45.12782" lon="5.59112">
        <ele>1020</ele>
      </trkpt>
      <trkpt lat="45.12791" lon="5.59072">
        <ele>1020</ele>
      </trkpt>
      <trkpt lat="45.12798" lon="5.59035">
        <ele>1020</ele>
      </trkpt>
      <trkpt lat="45.12807" lon="5.58995">
        <ele>1019</ele>
      </trkpt>
      <trkpt lat="45.12809" lon="5.58987">
        <ele>1019</ele>
      </trkpt>
      <trkpt lat="45.12814" lon="5.58971">
        <ele>1019</ele>
      </trkpt>
      <trkpt lat="45.12817" lon="5.58962">
        <ele>1019</ele>
      </trkpt>
    </trkseg>
  </trk>
</gpx>